Wetterdaten: Mittwoch, 17.04.2013
Datum Zeit Temp. Aussen +5cm Feuchte Auss Luftdruck Regen Sonnenschein Regendauer UV Solar Windben
17.04.2013 00:00 13,8 C 12,3 C 85 % 1020,7 hPa 0,0 l/m 0 min 0 min 0,0 UV-I 0 W/m 0,0 km/h (0 Bft)
17.04.2013 00:02 13,8 C 12,3 C 85 % 1020,7 hPa 0,0 l/m 0 min 0 min 0,0 UV-I 0 W/m 0,0 km/h (0 Bft)
17.04.2013 00:06 13,8 C 12,3 C 85 % 1020,7 hPa 0,0 l/m 0 min 0 min 0,0 UV-I 0 W/m 2,6 km/h (1 Bft)
17.04.2013 00:08 13,8 C 12,3 C 85 % 1020,7 hPa 0,0 l/m 0 min 0 min 0,0 UV-I 0 W/m 0,0 km/h (0 Bft)
17.04.2013 00:10 13,8 C 12,3 C 85 % 1020,7 hPa 0,0 l/m 0 min 0 min 0,0 UV-I 0 W/m 0,0 km/h (0 Bft)
17.04.2013 00:12 13,8 C 12,3 C 85 % 1020,7 hPa 0,0 l/m 0 min 0 min 0,0 UV-I 0 W/m 0,0 km/h (0 Bft)
17.04.2013 00:14 13,8 C 12,3 C 85 % 1020,7 hPa 0,0 l/m 0 min 0 min 0,0 UV-I 0 W/m 0,0 km/h (0 Bft)
17.04.2013 00:16 13,8 C 12,3 C 85 % 1020,7 hPa 0,0 l/m 0 min 0 min 0,0 UV-I 0 W/m 0,0 km/h (0 Bft)
17.04.2013 00:18 13,8 C 12,3 C 85 % 1020,7 hPa 0,0 l/m 0 min 0 min 0,0 UV-I 0 W/m 0,0 km/h (0 Bft)
17.04.2013 00:20 13,8 C 12,3 C 85 % 1020,7 hPa 0,0 l/m 0 min 0 min 0,0 UV-I 0 W/m 0,0 km/h (0 Bft)
17.04.2013 00:22 13,8 C 12,3 C 85 % 1020,7 hPa 0,0 l/m 0 min 0 min 0,0 UV-I 0 W/m 0,0 km/h (0 Bft)
17.04.2013 00:24 13,8 C 12,3 C 85 % 1020,7 hPa 0,0 l/m 0 min 0 min 0,0 UV-I 0 W/m 0,0 km/h (0 Bft)
17.04.2013 00:26 13,8 C 12,3 C 85 % 1020,7 hPa 0,0 l/m 0 min 0 min 0,0 UV-I 0 W/m 0,0 km/h (0 Bft)
17.04.2013 00:28 13,8 C 12,3 C 85 % 1020,8 hPa 0,0 l/m 0 min 0 min 0,0 UV-I 0 W/m 0,0 km/h (0 Bft)
17.04.2013 00:30 13,8 C 12,3 C 85 % 1020,8 hPa 0,0 l/m 0 min 0 min 0,0 UV-I 0 W/m 2,6 km/h (1 Bft)
17.04.2013 00:32 13,8 C 12,3 C 85 % 1020,8 hPa 0,0 l/m 0 min 0 min 0,0 UV-I 0 W/m 0,0 km/h (0 Bft)
17.04.2013 00:34 13,8 C 12,3 C 85 % 1020,8 hPa 0,0 l/m 0 min 0 min 0,0 UV-I 0 W/m 0,0 km/h (0 Bft)
17.04.2013 00:36 13,8 C 12,3 C 85 % 1020,8 hPa 0,0 l/m 0 min 0 min 0,0 UV-I 0 W/m 0,0 km/h (0 Bft)
17.04.2013 00:38 13,8 C 12,3 C 85 % 1020,8 hPa 0,0 l/m 0 min 0 min 0,0 UV-I 0 W/m 0,0 km/h (0 Bft)
17.04.2013 00:40 13,8 C 12,3 C 85 % 1020,8 hPa 0,0 l/m 0 min 0 min 0,0 UV-I 0 W/m 0,0 km/h (0 Bft)
17.04.2013 00:42 13,8 C 12,3 C 85 % 1020,7 hPa 0,0 l/m 0 min 0 min 0,0 UV-I 0 W/m 0,0 km/h (0 Bft)
17.04.2013 00:44 13,8 C 12,3 C 85 % 1020,7 hPa 0,0 l/m 0 min 0 min 0,0 UV-I 0 W/m 0,0 km/h (0 Bft)
17.04.2013 00:46 13,8 C 12,3 C 85 % 1020,7 hPa 0,0 l/m 0 min 0 min 0,0 UV-I 0 W/m 0,0 km/h (0 Bft)
17.04.2013 00:48 13,8 C 12,3 C 85 % 1020,8 hPa 0,0 l/m 0 min 0 min 0,0 UV-I 0 W/m 0,0 km/h (0 Bft)
17.04.2013 00:50 13,8 C 12,3 C 85 % 1020,8 hPa 0,0 l/m 0 min 0 min 0,0 UV-I 0 W/m 0,0 km/h (0 Bft)
17.04.2013 00:52 13,8 C 12,3 C 85 % 1020,8 hPa 0,0 l/m 0 min 0 min 0,0 UV-I 0 W/m 0,0 km/h (0 Bft)
17.04.2013 00:54 13,8 C 12,3 C 85 % 1020,8 hPa 0,0 l/m 0 min 0 min 0,0 UV-I 0 W/m 0,0 km/h (0 Bft)
17.04.2013 00:56 13,8 C 12,3 C 85 % 1020,8 hPa 0,0 l/m 0 min 0 min 0,0 UV-I 0 W/m 0,0 km/h (0 Bft)
17.04.2013 00:58 13,8 C 12,3 C 85 % 1020,8 hPa 0,0 l/m 0 min 0 min 0,0 UV-I 0 W/m 0,0 km/h (0 Bft)
17.04.2013 01:00 13,8 C 12,3 C 85 % 1020,8 hPa 0,0 l/m 0 min 0 min 0,0 UV-I 0 W/m 0,0 km/h (0 Bft)
17.04.2013 01:02 13,8 C 12,3 C 85 % 1020,8 hPa 0,0 l/m 0 min 0 min 0,0 UV-I 0 W/m 2,6 km/h (1 Bft)
17.04.2013 01:04 13,8 C 12,3 C 85 % 1020,8 hPa 0,0 l/m 0 min 0 min 0,0 UV-I 0 W/m 0,0 km/h (0 Bft)
17.04.2013 01:06 13,8 C 12,3 C 85 % 1020,8 hPa 0,0 l/m 0 min 0 min 0,0 UV-I 0 W/m 0,0 km/h (0 Bft)
17.04.2013 01:08 13,8 C 12,3 C 84 % 1020,9 hPa 0,0 l/m 0 min 0 min 0,0 UV-I 0 W/m 0,0 km/h (0 Bft)
17.04.2013 01:10 13,8 C 12,3 C 84 % 1020,9 hPa 0,0 l/m 0 min 0 min 0,0 UV-I 0 W/m 2,6 km/h (1 Bft)
17.04.2013 01:12 13,8 C 12,3 C 84 % 1020,9 hPa 0,0 l/m 0 min 0 min 0,0 UV-I 0 W/m 0,0 km/h (0 Bft)
17.04.2013 01:14 13,8 C 12,9 C 84 % 1020,9 hPa 0,0 l/m 0 min 0 min 0,0 UV-I 0 W/m 0,0 km/h (0 Bft)
17.04.2013 01:16 13,8 C 12,9 C 84 % 1020,8 hPa 0,0 l/m 0 min 0 min 0,0 UV-I 0 W/m 0,0 km/h (0 Bft)
17.04.2013 01:18 13,8 C 12,9 C 84 % 1020,9 hPa 0,0 l/m 0 min 0 min 0,0 UV-I 0 W/m 0,0 km/h (0 Bft)
17.04.2013 01:20 13,8 C 12,9 C 84 % 1020,8 hPa 0,0 l/m 0 min 0 min 0,0 UV-I 0 W/m 0,0 km/h (0 Bft)
17.04.2013 01:22 13,8 C 12,3 C 84 % 1020,8 hPa 0,0 l/m 0 min 0 min 0,0 UV-I 0 W/m 0,0 km/h (0 Bft)
17.04.2013 01:24 13,9 C 12,3 C 84 % 1020,9 hPa 0,0 l/m 0 min 0 min 0,0 UV-I 0 W/m 0,0 km/h (0 Bft)
17.04.2013 01:26 13,9 C 12,3 C 84 % 1021,0 hPa 0,0 l/m 0 min 0 min 0,0 UV-I 0 W/m 0,0 km/h (0 Bft)
17.04.2013 01:28 13,9 C 12,3 C 84 % 1020,9 hPa 0,0 l/m 0 min 0 min 0,0 UV-I 0 W/m 7,7 km/h (2 Bft)
17.04.2013 01:30 13,9 C 12,9 C 84 % 1020,9 hPa 0,0 l/m 0 min 0 min 0,0 UV-I 0 W/m 0,0 km/h (0 Bft)
17.04.2013 01:32 13,9 C 12,3 C 84 % 1020,9 hPa 0,0 l/m 0 min 0 min 0,0 UV-I 0 W/m 2,6 km/h (1 Bft)
17.04.2013 01:34 13,9 C 12,9 C 84 % 1021,0 hPa 0,0 l/m 0 min 0 min 0,0 UV-I 0 W/m 2,6 km/h (1 Bft)
17.04.2013 01:36 13,9 C 12,9 C 84 % 1020,9 hPa 0,0 l/m 0 min 0 min 0,0 UV-I 0 W/m 2,6 km/h (1 Bft)
17.04.2013 01:38 13,9 C 12,3 C 84 % 1020,9 hPa 0,0 l/m 0 min 0 min 0,0 UV-I 0 W/m 0,0 km/h (0 Bft)
17.04.2013 01:40 13,9 C 12,3 C 84 % 1021,0 hPa 0,0 l/m 0 min 0 min 0,0 UV-I 0 W/m 5,1 km/h (1 Bft)
17.04.2013 01:42 14,0 C 12,3 C 84 % 1020,9 hPa 0,0 l/m 0 min 0 min 0,0 UV-I 0 W/m 0,0 km/h (0 Bft)
17.04.2013 01:44 14,0 C 12,3 C 84 % 1020,9 hPa 0,0 l/m 0 min 0 min 0,0 UV-I 0 W/m 0,0 km/h (0 Bft)
17.04.2013 01:46 14,0 C 12,3 C 84 % 1020,9 hPa 0,0 l/m 0 min 0 min 0,0 UV-I 0 W/m 0,0 km/h (0 Bft)
17.04.2013 01:48 14,0 C 12,3 C 84 % 1021,0 hPa 0,0 l/m 0 min 0 min 0,0 UV-I 0 W/m 0,0 km/h (0 Bft)
17.04.2013 01:50 14,0 C 12,3 C 84 % 1020,9 hPa 0,0 l/m 0 min 0 min 0,0 UV-I 0 W/m 0,0 km/h (0 Bft)
17.04.2013 01:52 14,0 C 12,3 C 84 % 1021,0 hPa 0,0 l/m 0 min 0 min 0,0 UV-I 0 W/m 2,6 km/h (1 Bft)
17.04.2013 01:54 14,0 C 12,3 C 84 % 1021,0 hPa 0,0 l/m 0 min 0 min 0,0 UV-I 0 W/m 0,0 km/h (0 Bft)
17.04.2013 01:56 14,0 C 12,3 C 84 % 1020,9 hPa 0,0 l/m 0 min 0 min 0,0 UV-I 0 W/m 0,0 km/h (0 Bft)
17.04.2013 01:58 14,0 C 12,3 C 84 % 1020,9 hPa 0,0 l/m 0 min 0 min 0,0 UV-I 0 W/m 0,0 km/h (0 Bft)
17.04.2013 02:00 14,0 C 12,3 C 84 % 1020,9 hPa 0,0 l/m 0 min 0 min 0,0 UV-I 0 W/m 7,7 km/h (2 Bft)
17.04.2013 02:02 14,0 C 12,3 C 84 % 1020,9 hPa 0,0 l/m 0 min 0 min 0,0 UV-I 0 W/m 0,0 km/h (0 Bft)
17.04.2013 02:04 14,0 C 12,3 C 84 % 1021,0 hPa 0,0 l/m 0 min 0 min 0,0 UV-I 0 W/m 7,7 km/h (2 Bft)
17.04.2013 02:06 14,0 C 12,3 C 84 % 1020,9 hPa 0,0 l/m 0 min 0 min 0,0 UV-I 0 W/m 0,0 km/h (0 Bft)
17.04.2013 02:08 14,0 C 12,3 C 84 % 1021,0 hPa 0,0 l/m 0 min 0 min 0,0 UV-I 0 W/m 0,0 km/h (0 Bft)
17.04.2013 02:10 14,0 C 12,3 C 84 % 1020,9 hPa 0,0 l/m 0 min 0 min 0,0 UV-I 0 W/m 2,6 km/h (1 Bft)
17.04.2013 02:12 14,0 C 12,3 C 84 % 1020,9 hPa 0,0 l/m 0 min 0 min 0,0 UV-I 0 W/m 0,0 km/h (0 Bft)
17.04.2013 02:14 14,0 C 12,3 C 84 % 1020,9 hPa 0,0 l/m 0 min 0 min 0,0 UV-I 0 W/m 0,0 km/h (0 Bft)
17.04.2013 02:16 14,0 C 12,3 C 84 % 1021,0 hPa 0,0 l/m 0 min 0 min 0,0 UV-I 0 W/m 0,0 km/h (0 Bft)
17.04.2013 02:18 14,0 C 12,3 C 84 % 1021,0 hPa 0,0 l/m 0 min 0 min 0,0 UV-I 0 W/m 0,0 km/h (0 Bft)
17.04.2013 02:20 13,9 C 12,3 C 85 % 1021,0 hPa 0,0 l/m 0 min 0 min 0,0 UV-I 0 W/m 0,0 km/h (0 Bft)
17.04.2013 02:22 13,9 C 12,3 C 85 % 1021,0 hPa 0,0 l/m 0 min 0 min 0,0 UV-I 0 W/m 0,0 km/h (0 Bft)
17.04.2013 02:24 13,9 C 12,3 C 85 % 1021,0 hPa 0,0 l/m 0 min 0 min 0,0 UV-I 0 W/m 0,0 km/h (0 Bft)
17.04.2013 02:26 13,9 C 12,3 C 85 % 1020,9 hPa 0,0 l/m 0 min 0 min 0,0 UV-I 0 W/m 0,0 km/h (0 Bft)
17.04.2013 02:28 13,9 C 12,3 C 85 % 1021,0 hPa 0,0 l/m 0 min 0 min 0,0 UV-I 0 W/m 0,0 km/h (0 Bft)
17.04.2013 02:30 13,9 C 12,3 C 85 % 1021,0 hPa 0,0 l/m 0 min 0 min 0,0 UV-I 0 W/m 0,0 km/h (0 Bft)
17.04.2013 02:32 13,9 C 12,3 C 85 % 1021,0 hPa 0,0 l/m 0 min 0 min 0,0 UV-I 0 W/m 0,0 km/h (0 Bft)
17.04.2013 02:34 13,9 C 12,3 C 85 % 1021,0 hPa 0,0 l/m 0 min 0 min 0,0 UV-I 0 W/m 0,0 km/h (0 Bft)
17.04.2013 02:36 13,9 C 12,3 C 85 % 1021,0 hPa 0,0 l/m 0 min 0 min 0,0 UV-I 0 W/m 0,0 km/h (0 Bft)
17.04.2013 02:38 13,9 C 12,3 C 85 % 1021,1 hPa 0,0 l/m 0 min 0 min 0,0 UV-I 0 W/m 0,0 km/h (0 Bft)
17.04.2013 02:40 13,9 C 12,3 C 85 % 1021,0 hPa 0,0 l/m 0 min 0 min 0,0 UV-I 0 W/m 0,0 km/h (0 Bft)
17.04.2013 02:42 13,9 C 12,3 C 86 % 1021,0 hPa 0,0 l/m 0 min 0 min 0,0 UV-I 0 W/m 0,0 km/h (0 Bft)
17.04.2013 02:44 13,9 C 12,3 C 86 % 1021,0 hPa 0,0 l/m 0 min 0 min 0,0 UV-I 0 W/m 0,0 km/h (0 Bft)
17.04.2013 02:46 13,9 C 12,3 C 86 % 1021,1 hPa 0,0 l/m 0 min 0 min 0,0 UV-I 0 W/m 0,0 km/h (0 Bft)
17.04.2013 02:48 13,9 C 12,3 C 86 % 1021,1 hPa 0,0 l/m 0 min 0 min 0,0 UV-I 0 W/m 0,0 km/h (0 Bft)
17.04.2013 02:50 13,9 C 12,3 C 86 % 1021,1 hPa 0,0 l/m 0 min 0 min 0,0 UV-I 0 W/m 0,0 km/h (0 Bft)
17.04.2013 02:52 13,9 C 12,3 C 86 % 1021,1 hPa 0,0 l/m 0 min 0 min 0,0 UV-I 0 W/m 0,0 km/h (0 Bft)
17.04.2013 02:54 13,9 C 12,3 C 86 % 1021,1 hPa 0,0 l/m 0 min 0 min 0,0 UV-I 0 W/m 0,0 km/h (0 Bft)
17.04.2013 02:56 13,9 C 12,3 C 86 % 1021,1 hPa 0,0 l/m 0 min 0 min 0,0 UV-I 0 W/m 0,0 km/h (0 Bft)
17.04.2013 02:58 13,8 C 12,3 C 86 % 1021,2 hPa 0,0 l/m 0 min 0 min 0,0 UV-I 0 W/m 0,0 km/h (0 Bft)
17.04.2013 03:00 13,8 C 12,3 C 86 % 1021,2 hPa 0,0 l/m 0 min 0 min 0,0 UV-I 0 W/m 0,0 km/h (0 Bft)
17.04.2013 03:02 13,8 C 12,3 C 86 % 1021,2 hPa 0,0 l/m 0 min 0 min 0,0 UV-I 0 W/m 0,0 km/h (0 Bft)
17.04.2013 03:04 13,8 C 12,3 C 86 % 1021,2 hPa 0,0 l/m 0 min 0 min 0,0 UV-I 0 W/m 0,0 km/h (0 Bft)
17.04.2013 03:06 13,8 C 12,3 C 86 % 1021,2 hPa 0,0 l/m 0 min 0 min 0,0 UV-I 0 W/m 0,0 km/h (0 Bft)
17.04.2013 03:08 13,8 C 12,3 C 86 % 1021,2 hPa 0,0 l/m 0 min 0 min 0,0 UV-I 0 W/m 0,0 km/h (0 Bft)
17.04.2013 03:10 13,8 C 12,3 C 87 % 1021,2 hPa 0,0 l/m 0 min 0 min 0,0 UV-I 0 W/m 0,0 km/h (0 Bft)
17.04.2013 03:12 13,8 C 12,3 C 87 % 1021,2 hPa 0,0 l/m 0 min 0 min 0,0 UV-I 0 W/m 0,0 km/h (0 Bft)
17.04.2013 03:14 13,8 C 12,3 C 87 % 1021,3 hPa 0,0 l/m 0 min 0 min 0,0 UV-I 0 W/m 0,0 km/h (0 Bft)
17.04.2013 03:16 13,8 C 12,3 C 87 % 1021,2 hPa 0,0 l/m 0 min 0 min 0,0 UV-I 0 W/m 0,0 km/h (0 Bft)
17.04.2013 03:18 13,8 C 12,3 C 87 % 1021,2 hPa 0,0 l/m 0 min 0 min 0,0 UV-I 0 W/m 0,0 km/h (0 Bft)
17.04.2013 03:20 13,8 C 12,3 C 87 % 1021,2 hPa 0,0 l/m 0 min 0 min 0,0 UV-I 0 W/m 0,0 km/h (0 Bft)
17.04.2013 03:22 13,8 C 12,3 C 87 % 1021,3 hPa 0,0 l/m 0 min 0 min 0,0 UV-I 0 W/m 0,0 km/h (0 Bft)
17.04.2013 03:24 13,8 C 12,3 C 87 % 1021,2 hPa 0,0 l/m 0 min 0 min 0,0 UV-I 0 W/m 2,6 km/h (1 Bft)
17.04.2013 03:26 13,8 C 12,3 C 87 % 1021,2 hPa 0,0 l/m 0 min 0 min 0,0 UV-I 0 W/m 2,6 km/h (1 Bft)
17.04.2013 03:28 13,8 C 12,3 C 88 % 1021,2 hPa 0,0 l/m 0 min 0 min 0,0 UV-I 0 W/m 2,6 km/h (1 Bft)
17.04.2013 03:30 13,7 C 12,3 C 88 % 1021,2 hPa 0,0 l/m 0 min 0 min 0,0 UV-I 0 W/m 0,0 km/h (0 Bft)
17.04.2013 03:32 13,7 C 12,3 C 88 % 1021,3 hPa 0,0 l/m 0 min 0 min 0,0 UV-I 0 W/m 0,0 km/h (0 Bft)
17.04.2013 03:34 13,7 C 12,3 C 88 % 1021,2 hPa 0,0 l/m 0 min 0 min 0,0 UV-I 0 W/m 0,0 km/h (0 Bft)
17.04.2013 03:36 13,7 C 12,3 C 88 % 1021,2 hPa 0,0 l/m 0 min 0 min 0,0 UV-I 0 W/m 0,0 km/h (0 Bft)
17.04.2013 03:38 13,7 C 12,3 C 88 % 1021,3 hPa 0,0 l/m 0 min 0 min 0,0 UV-I 0 W/m 2,6 km/h (1 Bft)
17.04.2013 03:40 13,7 C 12,3 C 88 % 1021,4 hPa 0,0 l/m 0 min 0 min 0,0 UV-I 0 W/m 0,0 km/h (0 Bft)
17.04.2013 03:42 13,7 C 12,3 C 88 % 1021,3 hPa 0,0 l/m 0 min 0 min 0,0 UV-I 0 W/m 5,1 km/h (1 Bft)
17.04.2013 03:44 13,7 C 12,3 C 88 % 1021,3 hPa 0,0 l/m 0 min 0 min 0,0 UV-I 0 W/m 0,0 km/h (0 Bft)
17.04.2013 03:46 13,7 C 12,3 C 88 % 1021,3 hPa 0,0 l/m 0 min 0 min 0,0 UV-I 0 W/m 0,0 km/h (0 Bft)
17.04.2013 03:48 13,7 C 12,3 C 89 % 1021,4 hPa 0,0 l/m 0 min 0 min 0,0 UV-I 0 W/m 0,0 km/h (0 Bft)
17.04.2013 03:50 13,7 C 12,3 C 89 % 1021,3 hPa 0,0 l/m 0 min 0 min 0,0 UV-I 0 W/m 0,0 km/h (0 Bft)
17.04.2013 03:52 13,7 C 12,3 C 89 % 1021,3 hPa 0,0 l/m 0 min 0 min 0,0 UV-I 0 W/m 0,0 km/h (0 Bft)
17.04.2013 03:54 13,7 C 12,3 C 89 % 1021,3 hPa 0,0 l/m 0 min 0 min 0,0 UV-I 0 W/m 0,0 km/h (0 Bft)
17.04.2013 03:56 13,7 C 12,3 C 89 % 1021,3 hPa 0,0 l/m 0 min 0 min 0,0 UV-I 0 W/m 0,0 km/h (0 Bft)
17.04.2013 03:58 13,7 C 12,3 C 89 % 1021,3 hPa 0,0 l/m 0 min 0 min 0,0 UV-I 0 W/m 0,0 km/h (0 Bft)
17.04.2013 04:00 13,7 C 12,3 C 89 % 1021,3 hPa 0,0 l/m 0 min 0 min 0,0 UV-I 0 W/m 0,0 km/h (0 Bft)
17.04.2013 04:02 13,6 C 12,3 C 89 % 1021,2 hPa 0,0 l/m 0 min 0 min 0,0 UV-I 0 W/m 0,0 km/h (0 Bft)
17.04.2013 04:04 13,6 C 12,3 C 89 % 1021,3 hPa 0,0 l/m 0 min 0 min 0,0 UV-I 0 W/m 0,0 km/h (0 Bft)
17.04.2013 04:06 13,6 C 12,3 C 89 % 1021,3 hPa 0,0 l/m 0 min 0 min 0,0 UV-I 0 W/m 0,0 km/h (0 Bft)
17.04.2013 04:08 13,6 C 11,8 C 89 % 1021,3 hPa 0,0 l/m 0 min 0 min 0,0 UV-I 0 W/m 0,0 km/h (0 Bft)
17.04.2013 04:10 13,6 C 11,8 C 89 % 1021,3 hPa 0,0 l/m 0 min 0 min 0,0 UV-I 0 W/m 0,0 km/h (0 Bft)
17.04.2013 04:12 13,6 C 12,3 C 89 % 1021,3 hPa 0,0 l/m 0 min 0 min 0,0 UV-I 0 W/m 0,0 km/h (0 Bft)
17.04.2013 04:14 13,6 C 12,3 C 89 % 1021,2 hPa 0,0 l/m 0 min 0 min 0,0 UV-I 0 W/m 2,6 km/h (1 Bft)
17.04.2013 04:16 13,6 C 12,3 C 89 % 1021,3 hPa 0,0 l/m 0 min 0 min 0,0 UV-I 0 W/m 10,3 km/h (2 Bft)
17.04.2013 04:18 13,6 C 11,8 C 89 % 1021,3 hPa 0,0 l/m 0 min 0 min 0,0 UV-I 0 W/m 5,1 km/h (1 Bft)
17.04.2013 04:20 13,6 C 11,8 C 90 % 1021,3 hPa 0,0 l/m 0 min 0 min 0,0 UV-I 0 W/m 0,0 km/h (0 Bft)
17.04.2013 04:22 13,5 C 11,8 C 90 % 1021,2 hPa 0,0 l/m 0 min 0 min 0,0 UV-I 0 W/m 0,0 km/h (0 Bft)
17.04.2013 04:24 13,5 C 11,8 C 90 % 1021,2 hPa 0,0 l/m 0 min 0 min 0,0 UV-I 0 W/m 0,0 km/h (0 Bft)
17.04.2013 04:26 13,5 C 11,8 C 90 % 1021,2 hPa 0,0 l/m 0 min 0 min 0,0 UV-I 0 W/m 2,6 km/h (1 Bft)
17.04.2013 04:28 13,4 C 11,8 C 90 % 1021,3 hPa 0,0 l/m 0 min 0 min 0,0 UV-I 0 W/m 0,0 km/h (0 Bft)
17.04.2013 04:30 13,4 C 11,8 C 90 % 1021,1 hPa 0,0 l/m 0 min 0 min 0,0 UV-I 0 W/m 5,1 km/h (1 Bft)
17.04.2013 04:32 13,4 C 11,8 C 91 % 1021,2 hPa 0,0 l/m 0 min 0 min 0,0 UV-I 0 W/m 2,6 km/h (1 Bft)
17.04.2013 04:34 13,4 C 11,8 C 91 % 1021,1 hPa 0,0 l/m 0 min 0 min 0,0 UV-I 0 W/m 0,0 km/h (0 Bft)
17.04.2013 04:36 13,4 C 11,8 C 91 % 1021,0 hPa 0,0 l/m 0 min 0 min 0,0 UV-I 0 W/m 0,0 km/h (0 Bft)
17.04.2013 04:38 13,3 C 11,8 C 91 % 1021,1 hPa 0,0 l/m 0 min 0 min 0,0 UV-I 0 W/m 0,0 km/h (0 Bft)
17.04.2013 04:40 13,3 C 11,8 C 91 % 1021,0 hPa 0,0 l/m 0 min 0 min 0,0 UV-I 0 W/m 0,0 km/h (0 Bft)
17.04.2013 04:42 13,3 C 11,2 C 91 % 1021,1 hPa 0,0 l/m 0 min 0 min 0,0 UV-I 0 W/m 0,0 km/h (0 Bft)
17.04.2013 04:44 13,2 C 11,2 C 91 % 1021,1 hPa 0,0 l/m 0 min 0 min 0,0 UV-I 0 W/m 0,0 km/h (0 Bft)
17.04.2013 04:46 13,2 C 11,2 C 92 % 1021,1 hPa 0,0 l/m 0 min 0 min 0,0 UV-I 0 W/m 0,0 km/h (0 Bft)
17.04.2013 04:48 13,1 C 11,2 C 92 % 1021,1 hPa 0,0 l/m 0 min 0 min 0,0 UV-I 0 W/m 0,0 km/h (0 Bft)
17.04.2013 04:50 13,1 C 11,2 C 92 % 1021,1 hPa 0,0 l/m 0 min 0 min 0,0 UV-I 0 W/m 0,0 km/h (0 Bft)
17.04.2013 04:52 13,1 C 11,2 C 92 % 1021,1 hPa 0,0 l/m 0 min 0 min 0,0 UV-I 0 W/m 0,0 km/h (0 Bft)
17.04.2013 04:54 13,1 C 11,2 C 92 % 1021,0 hPa 0,0 l/m 0 min 0 min 0,0 UV-I 0 W/m 0,0 km/h (0 Bft)
17.04.2013 04:56 13,0 C 11,2 C 92 % 1021,1 hPa 0,0 l/m 0 min 0 min 0,0 UV-I 0 W/m 0,0 km/h (0 Bft)
17.04.2013 04:58 12,9 C 11,2 C 93 % 1021,0 hPa 0,0 l/m 0 min 0 min 0,0 UV-I 0 W/m 0,0 km/h (0 Bft)
17.04.2013 05:00 12,9 C 11,2 C 93 % 1021,1 hPa 0,0 l/m 0 min 0 min 0,0 UV-I 0 W/m 0,0 km/h (0 Bft)
17.04.2013 05:02 12,9 C 11,2 C 93 % 1021,1 hPa 0,0 l/m 0 min 0 min 0,0 UV-I 0 W/m 0,0 km/h (0 Bft)
17.04.2013 05:04 12,9 C 11,2 C 93 % 1021,1 hPa 0,0 l/m 0 min 0 min 0,0 UV-I 0 W/m 0,0 km/h (0 Bft)
17.04.2013 05:06 12,8 C 11,2 C 93 % 1021,1 hPa 0,0 l/m 0 min 0 min 0,0 UV-I 0 W/m 0,0 km/h (0 Bft)
17.04.2013 05:08 12,8 C 11,2 C 93 % 1021,1 hPa 0,0 l/m 0 min 0 min 0,0 UV-I 0 W/m 0,0 km/h (0 Bft)
17.04.2013 05:10 12,8 C 11,2 C 93 % 1021,0 hPa 0,0 l/m 0 min 0 min 0,0 UV-I 0 W/m 0,0 km/h (0 Bft)
17.04.2013 05:12 12,8 C 11,2 C 93 % 1021,1 hPa 0,0 l/m 0 min 0 min 0,0 UV-I 0 W/m 0,0 km/h (0 Bft)
17.04.2013 05:14 12,7 C 11,2 C 93 % 1021,1 hPa 0,0 l/m 0 min 0 min 0,0 UV-I 0 W/m 0,0 km/h (0 Bft)
17.04.2013 05:16 12,7 C 11,2 C 93 % 1021,1 hPa 0,0 l/m 0 min 0 min 0,0 UV-I 0 W/m 0,0 km/h (0 Bft)
17.04.2013 05:18 12,7 C 11,2 C 93 % 1021,1 hPa 0,0 l/m 0 min 0 min 0,0 UV-I 0 W/m 0,0 km/h (0 Bft)
17.04.2013 05:20 12,7 C 11,2 C 93 % 1021,2 hPa 0,0 l/m 0 min 0 min 0,0 UV-I 0 W/m 0,0 km/h (0 Bft)
17.04.2013 05:22 12,6 C 11,2 C 93 % 1021,1 hPa 0,0 l/m 0 min 0 min 0,0 UV-I 0 W/m 0,0 km/h (0 Bft)
17.04.2013 05:24 12,6 C 11,2 C 93 % 1021,2 hPa 0,0 l/m 0 min 0 min 0,0 UV-I 0 W/m 0,0 km/h (0 Bft)
17.04.2013 05:26 12,6 C 11,2 C 94 % 1021,1 hPa 0,0 l/m 0 min 0 min 0,0 UV-I 0 W/m 0,0 km/h (0 Bft)
17.04.2013 05:28 12,6 C 11,2 C 94 % 1021,1 hPa 0,0 l/m 0 min 0 min 0,0 UV-I 0 W/m 0,0 km/h (0 Bft)
17.04.2013 05:30 12,5 C 11,2 C 94 % 1021,1 hPa 0,0 l/m 0 min 0 min 0,0 UV-I 0 W/m 0,0 km/h (0 Bft)
17.04.2013 05:32 12,5 C 11,2 C 94 % 1021,1 hPa 0,0 l/m 0 min 0 min 0,0 UV-I 0 W/m 0,0 km/h (0 Bft)
17.04.2013 05:34 12,4 C 11,2 C 94 % 1021,1 hPa 0,0 l/m 0 min 0 min 0,0 UV-I 0 W/m 0,0 km/h (0 Bft)
17.04.2013 05:36 12,4 C 10,7 C 94 % 1021,1 hPa 0,0 l/m 0 min 0 min 0,0 UV-I 0 W/m 0,0 km/h (0 Bft)
17.04.2013 05:38 12,4 C 10,7 C 94 % 1021,0 hPa 0,0 l/m 0 min 0 min 0,0 UV-I 0 W/m 0,0 km/h (0 Bft)
17.04.2013 05:40 12,4 C 10,7 C 94 % 1021,0 hPa 0,0 l/m 0 min 0 min 0,0 UV-I 0 W/m 0,0 km/h (0 Bft)
17.04.2013 05:42 12,4 C 10,7 C 94 % 1021,1 hPa 0,0 l/m 0 min 0 min 0,0 UV-I 0 W/m 0,0 km/h (0 Bft)
17.04.2013 05:44 12,3 C 10,7 C 94 % 1021,1 hPa 0,0 l/m 0 min 0 min 0,0 UV-I 0 W/m 0,0 km/h (0 Bft)
17.04.2013 05:46 12,3 C 10,7 C 94 % 1021,1 hPa 0,0 l/m 0 min 0 min 0,0 UV-I 0 W/m 0,0 km/h (0 Bft)
17.04.2013 05:48 12,3 C 10,7 C 94 % 1021,0 hPa 0,0 l/m 0 min 0 min 0,0 UV-I 0 W/m 0,0 km/h (0 Bft)
17.04.2013 05:50 12,3 C 10,7 C 94 % 1021,0 hPa 0,0 l/m 0 min 0 min 0,0 UV-I 0 W/m 0,0 km/h (0 Bft)
17.04.2013 05:52 12,3 C 10,7 C 94 % 1021,0 hPa 0,0 l/m 0 min 0 min 0,0 UV-I 0 W/m 0,0 km/h (0 Bft)
17.04.2013 05:54 12,3 C 10,7 C 94 % 1021,0 hPa 0,0 l/m 0 min 0 min 0,0 UV-I 0 W/m 0,0 km/h (0 Bft)
17.04.2013 05:56 12,2 C 10,7 C 94 % 1021,0 hPa 0,0 l/m 0 min 0 min 0,0 UV-I 0 W/m 0,0 km/h (0 Bft)
17.04.2013 05:58 12,2 C 10,7 C 94 % 1021,0 hPa 0,0 l/m 0 min 0 min 0,0 UV-I 0 W/m 0,0 km/h (0 Bft)
17.04.2013 06:00 12,2 C 11,2 C 94 % 1021,1 hPa 0,0 l/m 0 min 0 min 0,0 UV-I 0 W/m 0,0 km/h (0 Bft)
17.04.2013 06:02 12,2 C 11,2 C 95 % 1021,1 hPa 0,0 l/m 0 min 0 min 0,0 UV-I 0 W/m 0,0 km/h (0 Bft)
17.04.2013 06:04 12,2 C 11,2 C 95 % 1021,1 hPa 0,0 l/m 0 min 0 min 0,0 UV-I 0 W/m 0,0 km/h (0 Bft)
17.04.2013 06:06 12,2 C 11,2 C 95 % 1021,1 hPa 0,0 l/m 0 min 0 min 0,0 UV-I 0 W/m 0,0 km/h (0 Bft)
17.04.2013 06:08 12,2 C 11,2 C 95 % 1021,1 hPa 0,0 l/m 0 min 0 min 0,0 UV-I 0 W/m 0,0 km/h (0 Bft)
17.04.2013 06:10 12,2 C 11,2 C 95 % 1021,1 hPa 0,0 l/m 0 min 0 min 0,0 UV-I 0 W/m 0,0 km/h (0 Bft)
17.04.2013 06:12 12,2 C 11,2 C 95 % 1021,0 hPa 0,0 l/m 0 min 0 min 0,0 UV-I 0 W/m 0,0 km/h (0 Bft)
17.04.2013 06:14 12,2 C 11,2 C 95 % 1021,0 hPa 0,0 l/m 0 min 0 min 0,0 UV-I 0 W/m 0,0 km/h (0 Bft)
17.04.2013 06:16 12,2 C 11,2 C 95 % 1021,0 hPa 0,0 l/m 0 min 0 min 0,0 UV-I 0 W/m 0,0 km/h (0 Bft)
17.04.2013 06:18 12,2 C 11,2 C 95 % 1021,0 hPa 0,0 l/m 0 min 0 min 0,0 UV-I 0 W/m 0,0 km/h (0 Bft)
17.04.2013 06:20 12,2 C 11,2 C 95 % 1020,9 hPa 0,0 l/m 0 min 0 min 0,0 UV-I 0 W/m 0,0 km/h (0 Bft)
17.04.2013 06:22 12,2 C 11,2 C 95 % 1021,0 hPa 0,0 l/m 0 min 0 min 0,0 UV-I 0 W/m 0,0 km/h (0 Bft)
17.04.2013 06:24 12,1 C 11,2 C 95 % 1020,9 hPa 0,0 l/m 0 min 0 min 0,0 UV-I 0 W/m 0,0 km/h (0 Bft)
17.04.2013 06:26 12,1 C 11,2 C 95 % 1021,0 hPa 0,0 l/m 0 min 0 min 0,0 UV-I 0 W/m 0,0 km/h (0 Bft)
17.04.2013 06:28 12,1 C 11,2 C 95 % 1020,9 hPa 0,0 l/m 0 min 0 min 0,0 UV-I 0 W/m 0,0 km/h (0 Bft)
17.04.2013 06:30 12,1 C 11,2 C 95 % 1020,9 hPa 0,0 l/m 0 min 0 min 0,0 UV-I 0 W/m 0,0 km/h (0 Bft)
17.04.2013 06:32 12,1 C 11,2 C 95 % 1020,9 hPa 0,0 l/m 0 min 0 min 0,0 UV-I 0 W/m 0,0 km/h (0 Bft)
17.04.2013 06:34 12,1 C 11,2 C 95 % 1020,9 hPa 0,0 l/m 0 min 0 min 0,0 UV-I 0 W/m 0,0 km/h (0 Bft)
17.04.2013 06:36 12,1 C 11,2 C 95 % 1020,9 hPa 0,0 l/m 0 min 0 min 0,0 UV-I 0 W/m 0,0 km/h (0 Bft)
17.04.2013 06:38 12,1 C 11,2 C 95 % 1020,9 hPa 0,0 l/m 0 min 0 min 0,0 UV-I 0 W/m 0,0 km/h (0 Bft)
17.04.2013 06:40 12,1 C 11,2 C 96 % 1020,9 hPa 0,0 l/m 0 min 0 min 0,0 UV-I 0 W/m 0,0 km/h (0 Bft)
17.04.2013 06:42 12,1 C 11,2 C 96 % 1021,0 hPa 0,0 l/m 0 min 0 min 0,0 UV-I 0 W/m 0,0 km/h (0 Bft)
17.04.2013 06:44 12,1 C 11,2 C 96 % 1021,0 hPa 0,0 l/m 0 min 0 min 0,0 UV-I 5 W/m 0,0 km/h (0 Bft)
17.04.2013 06:46 12,1 C 11,2 C 96 % 1021,0 hPa 0,0 l/m 0 min 0 min 0,0 UV-I 5 W/m 0,0 km/h (0 Bft)
17.04.2013 06:48 12,1 C 11,2 C 96 % 1021,0 hPa 0,0 l/m 0 min 0 min 0,0 UV-I 5 W/m 0,0 km/h (0 Bft)
17.04.2013 06:50 12,1 C 11,2 C 96 % 1021,0 hPa 0,0 l/m 0 min 0 min 0,0 UV-I 5 W/m 0,0 km/h (0 Bft)
17.04.2013 06:52 12,1 C 11,2 C 96 % 1021,0 hPa 0,0 l/m 0 min 0 min 0,0 UV-I 5 W/m 0,0 km/h (0 Bft)
17.04.2013 06:54 12,1 C 11,2 C 96 % 1021,0 hPa 0,0 l/m 0 min 0 min 0,0 UV-I 7 W/m 0,0 km/h (0 Bft)
17.04.2013 06:56 12,1 C 11,2 C 96 % 1021,0 hPa 0,0 l/m 0 min 0 min 0,0 UV-I 7 W/m 0,0 km/h (0 Bft)
17.04.2013 06:58 12,1 C 11,2 C 96 % 1020,9 hPa 0,0 l/m 0 min 0 min 0,0 UV-I 7 W/m 0,0 km/h (0 Bft)
17.04.2013 07:00 12,2 C 11,2 C 96 % 1021,0 hPa 0,0 l/m 0 min 0 min 0,0 UV-I 9 W/m 0,0 km/h (0 Bft)
17.04.2013 07:02 12,2 C 11,2 C 96 % 1021,0 hPa 0,0 l/m 0 min 0 min 0,0 UV-I 9 W/m 0,0 km/h (0 Bft)
17.04.2013 07:04 12,2 C 11,2 C 96 % 1021,0 hPa 0,0 l/m 0 min 0 min 0,0 UV-I 9 W/m 0,0 km/h (0 Bft)
17.04.2013 07:06 12,2 C 11,2 C 96 % 1021,0 hPa 0,0 l/m 0 min 0 min 0,0 UV-I 11 W/m 0,0 km/h (0 Bft)
17.04.2013 07:08 12,2 C 11,2 C 96 % 1021,1 hPa 0,0 l/m 0 min 0 min 0,0 UV-I 14 W/m 0,0 km/h (0 Bft)
17.04.2013 07:10 12,2 C 11,2 C 96 % 1021,1 hPa 0,0 l/m 0 min 0 min 0,0 UV-I 14 W/m 0,0 km/h (0 Bft)
17.04.2013 07:12 12,2 C 11,2 C 96 % 1021,1 hPa 0,0 l/m 0 min 0 min 0,0 UV-I 14 W/m 5,1 km/h (1 Bft)
17.04.2013 07:14 12,3 C 11,8 C 96 % 1021,0 hPa 0,0 l/m 0 min 0 min 0,0 UV-I 16 W/m 2,6 km/h (1 Bft)
17.04.2013 07:16 12,3 C 11,8 C 96 % 1021,0 hPa 0,0 l/m 0 min 0 min 0,0 UV-I 18 W/m 0,0 km/h (0 Bft)
17.04.2013 07:18 12,3 C 11,8 C 97 % 1021,1 hPa 0,0 l/m 0 min 0 min 0,0 UV-I 16 W/m 0,0 km/h (0 Bft)
17.04.2013 07:20 12,3 C 11,8 C 97 % 1021,1 hPa 0,0 l/m 0 min 0 min 0,0 UV-I 14 W/m 0,0 km/h (0 Bft)
17.04.2013 07:22 12,3 C 11,8 C 97 % 1021,2 hPa 0,0 l/m 0 min 0 min 0,0 UV-I 14 W/m 0,0 km/h (0 Bft)
17.04.2013 07:24 12,3 C 11,8 C 97 % 1021,2 hPa 0,0 l/m 0 min 0 min 0,0 UV-I 18 W/m 5,1 km/h (1 Bft)
17.04.2013 07:26 12,3 C 11,8 C 97 % 1021,2 hPa 0,0 l/m 0 min 0 min 0,0 UV-I 21 W/m 2,6 km/h (1 Bft)
17.04.2013 07:28 12,3 C 11,8 C 97 % 1021,3 hPa 0,0 l/m 0 min 0 min 0,0 UV-I 26 W/m 0,0 km/h (0 Bft)
17.04.2013 07:30 12,4 C 11,8 C 97 % 1021,2 hPa 0,0 l/m 0 min 0 min 0,0 UV-I 32 W/m 2,6 km/h (1 Bft)
17.04.2013 07:32 12,4 C 11,8 C 97 % 1021,3 hPa 0,0 l/m 0 min 0 min 0,0 UV-I 39 W/m 0,0 km/h (0 Bft)
17.04.2013 07:34 12,4 C 11,8 C 97 % 1021,3 hPa 0,0 l/m 0 min 0 min 0,0 UV-I 46 W/m 0,0 km/h (0 Bft)
17.04.2013 07:36 12,4 C 11,8 C 97 % 1021,3 hPa 0,0 l/m 0 min 0 min 0,0 UV-I 47 W/m 2,6 km/h (1 Bft)
17.04.2013 07:38 12,4 C 12,3 C 97 % 1021,3 hPa 0,0 l/m 0 min 0 min 0,0 UV-I 42 W/m 0,0 km/h (0 Bft)
17.04.2013 07:40 12,5 C 12,3 C 97 % 1021,4 hPa 0,0 l/m 0 min 0 min 0,0 UV-I 35 W/m 0,0 km/h (0 Bft)
17.04.2013 07:42 12,5 C 12,3 C 97 % 1021,4 hPa 0,0 l/m 0 min 0 min 0,0 UV-I 30 W/m 0,0 km/h (0 Bft)
17.04.2013 07:44 12,6 C 12,3 C 97 % 1021,3 hPa 0,0 l/m 0 min 0 min 0,0 UV-I 33 W/m 0,0 km/h (0 Bft)
17.04.2013 07:46 12,6 C 12,3 C 97 % 1021,3 hPa 0,0 l/m 0 min 0 min 0,0 UV-I 32 W/m 7,7 km/h (2 Bft)
17.04.2013 07:48 12,6 C 12,3 C 97 % 1021,3 hPa 0,0 l/m 0 min 0 min 0,0 UV-I 23 W/m 7,7 km/h (2 Bft)
17.04.2013 07:50 12,7 C 12,3 C 97 % 1021,3 hPa 0,0 l/m 0 min 0 min 0,0 UV-I 21 W/m 0,0 km/h (0 Bft)
17.04.2013 07:52 12,7 C 12,3 C 97 % 1021,3 hPa 0,0 l/m 0 min 0 min 0,0 UV-I 25 W/m 0,0 km/h (0 Bft)
17.04.2013 07:54 12,7 C 12,3 C 97 % 1021,3 hPa 0,0 l/m 0 min 0 min 0,0 UV-I 35 W/m 0,0 km/h (0 Bft)
17.04.2013 07:56 12,7 C 12,3 C 97 % 1021,3 hPa 0,0 l/m 0 min 0 min 0,0 UV-I 40 W/m 0,0 km/h (0 Bft)
17.04.2013 07:58 12,7 C 12,3 C 97 % 1021,3 hPa 0,0 l/m 0 min 0 min 0,0 UV-I 47 W/m 0,0 km/h (0 Bft)
17.04.2013 08:00 12,8 C 12,3 C 97 % 1021,3 hPa 0,0 l/m 0 min 0 min 0,0 UV-I 49 W/m 0,0 km/h (0 Bft)
17.04.2013 08:02 12,8 C 12,3 C 97 % 1021,3 hPa 0,0 l/m 0 min 0 min 0,0 UV-I 44 W/m 0,0 km/h (0 Bft)
17.04.2013 08:04 12,8 C 12,3 C 97 % 1021,4 hPa 0,0 l/m 0 min 0 min 0,0 UV-I 42 W/m 2,6 km/h (1 Bft)
17.04.2013 08:06 12,8 C 12,9 C 97 % 1021,3 hPa 0,0 l/m 0 min 0 min 0,0 UV-I 44 W/m 2,6 km/h (1 Bft)
17.04.2013 08:08 12,9 C 12,9 C 97 % 1021,4 hPa 0,0 l/m 0 min 0 min 0,0 UV-I 47 W/m 0,0 km/h (0 Bft)
17.04.2013 08:10 12,9 C 12,9 C 97 % 1021,3 hPa 0,0 l/m 0 min 0 min 0,0 UV-I 49 W/m 7,7 km/h (2 Bft)
17.04.2013 08:12 12,9 C 12,9 C 97 % 1021,3 hPa 0,0 l/m 0 min 0 min 0,0 UV-I 54 W/m 7,7 km/h (2 Bft)
17.04.2013 08:14 12,9 C 12,9 C 97 % 1021,4 hPa 0,0 l/m 0 min 0 min 0,0 UV-I 58 W/m 0,0 km/h (0 Bft)
17.04.2013 08:16 13,0 C 12,9 C 97 % 1021,4 hPa 0,0 l/m 0 min 0 min 0,0 UV-I 60 W/m 0,0 km/h (0 Bft)
17.04.2013 08:18 13,0 C 12,9 C 97 % 1021,3 hPa 0,0 l/m 0 min 0 min 0,0 UV-I 69 W/m 5,1 km/h (1 Bft)
17.04.2013 08:20 13,1 C 12,9 C 97 % 1021,3 hPa 0,0 l/m 0 min 0 min 0,0 UV-I 70 W/m 0,0 km/h (0 Bft)
17.04.2013 08:22 13,1 C 12,9 C 97 % 1021,3 hPa 0,0 l/m 0 min 0 min 0,0 UV-I 72 W/m 0,0 km/h (0 Bft)
17.04.2013 08:24 13,1 C 12,9 C 97 % 1021,3 hPa 0,0 l/m 0 min 0 min 0,0 UV-I 77 W/m 2,6 km/h (1 Bft)
17.04.2013 08:26 13,2 C 13,4 C 97 % 1021,4 hPa 0,0 l/m 0 min 0 min 0,0 UV-I 83 W/m 2,6 km/h (1 Bft)
17.04.2013 08:28 13,2 C 13,4 C 97 % 1021,4 hPa 0,0 l/m 0 min 0 min 0,0 UV-I 91 W/m 10,3 km/h (2 Bft)
17.04.2013 08:30 13,3 C 13,4 C 97 % 1021,3 hPa 0,0 l/m 0 min 0 min 0,0 UV-I 100 W/m 12,9 km/h (3 Bft)
17.04.2013 08:32 13,3 C 13,4 C 96 % 1021,3 hPa 0,0 l/m 0 min 0 min 0,0 UV-I 102 W/m 0,0 km/h (0 Bft)
17.04.2013 08:34 13,4 C 13,4 C 96 % 1021,3 hPa 0,0 l/m 0 min 0 min 0,0 UV-I 105 W/m 7,7 km/h (2 Bft)
17.04.2013 08:36 13,4 C 13,4 C 96 % 1021,3 hPa 0,0 l/m 0 min 0 min 0,0 UV-I 113 W/m 12,9 km/h (3 Bft)
17.04.2013 08:38 13,4 C 14,0 C 96 % 1021,3 hPa 0,0 l/m 0 min 0 min 0,0 UV-I 111 W/m 0,0 km/h (0 Bft)
17.04.2013 08:40 13,5 C 14,0 C 96 % 1021,3 hPa 0,0 l/m 0 min 0 min 0,0 UV-I 107 W/m 0,0 km/h (0 Bft)
17.04.2013 08:42 13,6 C 14,0 C 96 % 1021,3 hPa 0,0 l/m 0 min 0 min 0,0 UV-I 105 W/m 0,0 km/h (0 Bft)
17.04.2013 08:44 13,7 C 14,0 C 96 % 1021,3 hPa 0,0 l/m 0 min 0 min 0,0 UV-I 100 W/m 0,0 km/h (0 Bft)
17.04.2013 08:46 13,7 C 14,0 C 96 % 1021,4 hPa 0,0 l/m 0 min 0 min 0,0 UV-I 93 W/m 0,0 km/h (0 Bft)
17.04.2013 08:48 13,7 C 14,0 C 95 % 1021,4 hPa 0,0 l/m 0 min 0 min 0,0 UV-I 84 W/m 5,1 km/h (1 Bft)
17.04.2013 08:50 13,8 C 14,0 C 95 % 1021,4 hPa 0,0 l/m 0 min 0 min 0,0 UV-I 86 W/m 2,6 km/h (1 Bft)
17.04.2013 08:52 13,8 C 14,0 C 95 % 1021,4 hPa 0,0 l/m 0 min 0 min 0,0 UV-I 95 W/m 0,0 km/h (0 Bft)
17.04.2013 08:54 13,8 C 14,0 C 95 % 1021,4 hPa 0,0 l/m 0 min 0 min 0,0 UV-I 104 W/m 7,7 km/h (2 Bft)
17.04.2013 08:56 13,9 C 14,0 C 94 % 1021,4 hPa 0,0 l/m 0 min 0 min 0,0 UV-I 98 W/m 12,9 km/h (3 Bft)
17.04.2013 08:58 13,9 C 14,0 C 94 % 1021,4 hPa 0,0 l/m 0 min 0 min 0,0 UV-I 102 W/m 2,6 km/h (1 Bft)
17.04.2013 09:00 14,0 C 14,0 C 94 % 1021,5 hPa 0,0 l/m 0 min 0 min 0,0 UV-I 104 W/m 10,3 km/h (2 Bft)
17.04.2013 09:02 14,1 C 14,0 C 93 % 1021,5 hPa 0,0 l/m 0 min 0 min 0,0 UV-I 102 W/m 2,6 km/h (1 Bft)
17.04.2013 09:04 14,1 C 14,0 C 93 % 1021,5 hPa 0,0 l/m 0 min 0 min 0,0 UV-I 90 W/m 0,0 km/h (0 Bft)
17.04.2013 09:06 14,2 C 14,0 C 93 % 1021,5 hPa 0,0 l/m 0 min 0 min 0,0 UV-I 84 W/m 7,7 km/h (2 Bft)
17.04.2013 09:08 14,2 C 14,0 C 93 % 1021,6 hPa 0,0 l/m 0 min 0 min 0,0 UV-I 93 W/m 0,0 km/h (0 Bft)
17.04.2013 09:10 14,3 C 14,6 C 93 % 1021,5 hPa 0,0 l/m 0 min 0 min 0,0 UV-I 105 W/m 0,0 km/h (0 Bft)
17.04.2013 09:12 14,3 C 14,6 C 93 % 1021,6 hPa 0,0 l/m 0 min 0 min 0,0 UV-I 113 W/m 0,0 km/h (0 Bft)
17.04.2013 09:14 14,4 C 14,6 C 93 % 1021,6 hPa 0,0 l/m 0 min 0 min 0,0 UV-I 135 W/m 0,0 km/h (0 Bft)
17.04.2013 09:16 14,4 C 14,6 C 92 % 1021,6 hPa 0,0 l/m 0 min 0 min 0,0 UV-I 151 W/m 0,0 km/h (0 Bft)
17.04.2013 09:18 14,4 C 14,6 C 92 % 1021,6 hPa 0,0 l/m 0 min 0 min 0,0 UV-I 167 W/m 2,6 km/h (1 Bft)
17.04.2013 09:20 14,5 C 15,1 C 92 % 1021,6 hPa 0,0 l/m 0 min 0 min 0,0 UV-I 162 W/m 10,3 km/h (2 Bft)
17.04.2013 09:22 14,6 C 14,6 C 91 % 1021,6 hPa 0,0 l/m 0 min 0 min 0,0 UV-I 127 W/m 7,7 km/h (2 Bft)
17.04.2013 09:24 14,6 C 14,6 C 91 % 1021,6 hPa 0,0 l/m 0 min 0 min 0,0 UV-I 132 W/m 7,7 km/h (2 Bft)
17.04.2013 09:26 14,6 C 14,6 C 91 % 1021,7 hPa 0,0 l/m 0 min 0 min 0,0 UV-I 128 W/m 12,9 km/h (3 Bft)
17.04.2013 09:28 14,7 C 14,6 C 90 % 1021,6 hPa 0,0 l/m 0 min 0 min 0,0 UV-I 125 W/m 15,4 km/h (3 Bft)
17.04.2013 09:30 14,7 C 14,6 C 90 % 1021,6 hPa 0,0 l/m 0 min 0 min 0,0 UV-I 118 W/m 10,3 km/h (2 Bft)
17.04.2013 09:32 14,8 C 14,6 C 90 % 1021,7 hPa 0,0 l/m 0 min 0 min 0,0 UV-I 130 W/m 12,9 km/h (3 Bft)
17.04.2013 09:34 14,8 C 14,6 C 90 % 1021,7 hPa 0,0 l/m 0 min 0 min 0,0 UV-I 118 W/m 10,3 km/h (2 Bft)
17.04.2013 09:36 14,8 C 14,6 C 89 % 1021,9 hPa 0,0 l/m 0 min 0 min 0,0 UV-I 98 W/m 15,4 km/h (3 Bft)
17.04.2013 09:38 14,8 C 14,6 C 89 % 1021,7 hPa 0,0 l/m 0 min 0 min 0,0 UV-I 90 W/m 12,9 km/h (3 Bft)
17.04.2013 09:40 14,8 C 14,6 C 89 % 1021,8 hPa 0,0 l/m 0 min 0 min 0,0 UV-I 97 W/m 12,9 km/h (3 Bft)
17.04.2013 09:42 14,9 C 14,6 C 89 % 1021,7 hPa 0,0 l/m 0 min 0 min 0,0 UV-I 83 W/m 2,6 km/h (1 Bft)
17.04.2013 09:44 14,9 C 14,6 C 89 % 1021,7 hPa 0,0 l/m 0 min 0 min 0,0 UV-I 90 W/m 5,1 km/h (1 Bft)
17.04.2013 09:46 14,9 C 14,6 C 89 % 1021,7 hPa 0,0 l/m 0 min 0 min 0,0 UV-I 104 W/m 7,7 km/h (2 Bft)
17.04.2013 09:48 14,9 C 14,6 C 88 % 1021,7 hPa 0,0 l/m 0 min 0 min 0,0 UV-I 95 W/m 12,9 km/h (3 Bft)
17.04.2013 09:50 14,9 C 14,6 C 88 % 1021,6 hPa 0,0 l/m 0 min 0 min 0,0 UV-I 91 W/m 2,6 km/h (1 Bft)
17.04.2013 09:52 15,0 C 14,6 C 88 % 1021,6 hPa 0,0 l/m 0 min 0 min 0,0 UV-I 84 W/m 12,9 km/h (3 Bft)
17.04.2013 09:54 15,0 C 14,6 C 88 % 1021,6 hPa 0,0 l/m 0 min 0 min 0,0 UV-I 77 W/m 7,7 km/h (2 Bft)
17.04.2013 09:56 15,0 C 14,6 C 88 % 1021,6 hPa 0,0 l/m 0 min 0 min 0,0 UV-I 114 W/m 5,1 km/h (1 Bft)
17.04.2013 09:58 15,0 C 14,6 C 88 % 1021,5 hPa 0,0 l/m 0 min 0 min 0,0 UV-I 153 W/m 10,3 km/h (2 Bft)
17.04.2013 10:00 15,0 C 14,6 C 88 % 1021,4 hPa 0,0 l/m 0 min 0 min 0,0 UV-I 179 W/m 10,3 km/h (2 Bft)
17.04.2013 10:02 15,0 C 15,1 C 88 % 1021,4 hPa 0,0 l/m 0 min 0 min 0,0 UV-I 178 W/m 7,7 km/h (2 Bft)
17.04.2013 10:04 15,0 C 15,1 C 88 % 1021,4 hPa 0,0 l/m 0 min 0 min 0,0 UV-I 172 W/m 5,1 km/h (1 Bft)
17.04.2013 10:06 15,0 C 15,7 C 88 % 1021,4 hPa 0,0 l/m 0 min 0 min 0,0 UV-I 165 W/m 2,6 km/h (1 Bft)
17.04.2013 10:08 15,1 C 15,7 C 88 % 1021,4 hPa 0,0 l/m 0 min 0 min 0,0 UV-I 158 W/m 0,0 km/h (0 Bft)
17.04.2013 10:10 15,2 C 15,7 C 88 % 1021,4 hPa 0,0 l/m 0 min 0 min 0,0 UV-I 156 W/m 5,1 km/h (1 Bft)
17.04.2013 10:12 15,2 C 15,7 C 87 % 1021,4 hPa 0,0 l/m 0 min 0 min 0,0 UV-I 149 W/m 2,6 km/h (1 Bft)
17.04.2013 10:14 15,2 C 15,7 C 86 % 1021,4 hPa 0,0 l/m 0 min 0 min 0,0 UV-I 142 W/m 2,6 km/h (1 Bft)
17.04.2013 10:16 15,3 C 15,7 C 87 % 1021,4 hPa 0,0 l/m 0 min 0 min 0,0 UV-I 144 W/m 2,6 km/h (1 Bft)
17.04.2013 10:18 15,3 C 15,7 C 87 % 1021,4 hPa 0,0 l/m 0 min 0 min 0,0 UV-I 141 W/m 2,6 km/h (1 Bft)
17.04.2013 10:20 15,3 C 15,7 C 86 % 1021,5 hPa 0,0 l/m 0 min 0 min 0,0 UV-I 141 W/m 5,1 km/h (1 Bft)
17.04.2013 10:22 15,4 C 15,7 C 86 % 1021,4 hPa 0,0 l/m 0 min 0 min 0,0 UV-I 144 W/m 10,3 km/h (2 Bft)
17.04.2013 10:24 15,4 C 15,7 C 86 % 1021,5 hPa 0,0 l/m 0 min 0 min 0,0 UV-I 141 W/m 2,6 km/h (1 Bft)
17.04.2013 10:26 15,4 C 15,1 C 85 % 1021,5 hPa 0,0 l/m 0 min 0 min 0,0 UV-I 135 W/m 7,7 km/h (2 Bft)
17.04.2013 10:28 15,4 C 15,1 C 84 % 1021,5 hPa 0,0 l/m 0 min 0 min 0,0 UV-I 137 W/m 10,3 km/h (2 Bft)
17.04.2013 10:30 15,4 C 15,1 C 84 % 1021,5 hPa 0,0 l/m 0 min 0 min 0,0 UV-I 139 W/m 5,1 km/h (1 Bft)
17.04.2013 10:32 15,5 C 15,7 C 84 % 1021,5 hPa 0,0 l/m 0 min 0 min 0,0 UV-I 137 W/m 2,6 km/h (1 Bft)
17.04.2013 10:34 15,5 C 15,7 C 84 % 1021,5 hPa 0,0 l/m 0 min 0 min 0,0 UV-I 132 W/m 5,1 km/h (1 Bft)
17.04.2013 10:36 15,6 C 15,7 C 84 % 1021,4 hPa 0,0 l/m 0 min 0 min 0,0 UV-I 134 W/m 7,7 km/h (2 Bft)
17.04.2013 10:38 15,6 C 15,7 C 84 % 1021,5 hPa 0,0 l/m 0 min 0 min 0,0 UV-I 132 W/m 2,6 km/h (1 Bft)
17.04.2013 10:40 15,6 C 15,7 C 84 % 1021,5 hPa 0,0 l/m 0 min 0 min 0,0 UV-I 135 W/m 10,3 km/h (2 Bft)
17.04.2013 10:42 15,6 C 15,7 C 83 % 1021,6 hPa 0,0 l/m 0 min 0 min 0,0 UV-I 144 W/m 2,6 km/h (1 Bft)
17.04.2013 10:44 15,7 C 15,7 C 83 % 1021,5 hPa 0,0 l/m 0 min 0 min 0,0 UV-I 172 W/m 2,6 km/h (1 Bft)
17.04.2013 10:46 15,7 C 15,7 C 83 % 1021,4 hPa 0,0 l/m 0 min 0 min 0,0 UV-I 186 W/m 7,7 km/h (2 Bft)
17.04.2013 10:48 15,7 C 15,7 C 83 % 1021,5 hPa 0,0 l/m 0 min 0 min 0,0 UV-I 185 W/m 2,6 km/h (1 Bft)
17.04.2013 10:50 15,7 C 15,7 C 82 % 1021,4 hPa 0,0 l/m 0 min 0 min 0,5 UV-I 192 W/m 7,7 km/h (2 Bft)
17.04.2013 10:52 15,8 C 16,2 C 83 % 1021,4 hPa 0,0 l/m 0 min 0 min 0,5 UV-I 200 W/m 7,7 km/h (2 Bft)
17.04.2013 10:54 15,8 C 16,2 C 82 % 1021,4 hPa 0,0 l/m 0 min 0 min 0,0 UV-I 186 W/m 2,6 km/h (1 Bft)
17.04.2013 10:56 15,8 C 16,2 C 82 % 1021,3 hPa 0,0 l/m 0 min 0 min 0,5 UV-I 192 W/m 7,7 km/h (2 Bft)
17.04.2013 10:58 15,9 C 16,8 C 83 % 1021,4 hPa 0,0 l/m 0 min 0 min 0,5 UV-I 207 W/m 0,0 km/h (0 Bft)
17.04.2013 11:00 16,0 C 16,8 C 82 % 1021,4 hPa 0,0 l/m 0 min 0 min 0,6 UV-I 218 W/m 5,1 km/h (1 Bft)
17.04.2013 11:02 16,1 C 16,8 C 82 % 1021,4 hPa 0,0 l/m 0 min 0 min 0,5 UV-I 202 W/m 5,1 km/h (1 Bft)
17.04.2013 11:04 16,1 C 16,8 C 82 % 1021,5 hPa 0,0 l/m 0 min 0 min 0,5 UV-I 199 W/m 5,1 km/h (1 Bft)
17.04.2013 11:06 16,2 C 16,8 C 82 % 1021,4 hPa 0,0 l/m 0 min 0 min 0,5 UV-I 211 W/m 2,6 km/h (1 Bft)
17.04.2013 11:08 16,2 C 16,8 C 81 % 1021,4 hPa 0,0 l/m 0 min 0 min 0,0 UV-I 192 W/m 7,7 km/h (2 Bft)
17.04.2013 11:10 16,3 C 16,8 C 81 % 1021,3 hPa 0,0 l/m 0 min 0 min 0,0 UV-I 165 W/m 2,6 km/h (1 Bft)
17.04.2013 11:12 16,3 C 16,8 C 81 % 1021,4 hPa 0,0 l/m 0 min 0 min 0,0 UV-I 163 W/m 7,7 km/h (2 Bft)
17.04.2013 11:14 16,3 C 16,2 C 80 % 1021,3 hPa 0,0 l/m 0 min 0 min 0,0 UV-I 155 W/m 5,1 km/h (1 Bft)
17.04.2013 11:16 16,3 C 16,2 C 80 % 1021,2 hPa 0,0 l/m 0 min 0 min 0,0 UV-I 158 W/m 12,9 km/h (3 Bft)
17.04.2013 11:18 16,4 C 16,2 C 80 % 1021,3 hPa 0,0 l/m 0 min 0 min 0,0 UV-I 153 W/m 7,7 km/h (2 Bft)
17.04.2013 11:20 16,4 C 16,2 C 79 % 1021,3 hPa 0,0 l/m 0 min 0 min 0,0 UV-I 153 W/m 12,9 km/h (3 Bft)
17.04.2013 11:22 16,4 C 16,2 C 79 % 1021,2 hPa 0,0 l/m 0 min 0 min 0,0 UV-I 162 W/m 10,3 km/h (2 Bft)
17.04.2013 11:24 16,4 C 16,2 C 79 % 1021,2 hPa 0,0 l/m 0 min 0 min 0,0 UV-I 174 W/m 0,0 km/h (0 Bft)
17.04.2013 11:26 16,4 C 16,2 C 80 % 1021,2 hPa 0,0 l/m 0 min 0 min 0,0 UV-I 186 W/m 0,0 km/h (0 Bft)
17.04.2013 11:28 16,4 C 16,8 C 79 % 1021,2 hPa 0,0 l/m 0 min 0 min 0,5 UV-I 186 W/m 2,6 km/h (1 Bft)
17.04.2013 11:30 16,5 C 16,8 C 80 % 1021,2 hPa 0,0 l/m 0 min 0 min 0,5 UV-I 185 W/m 10,3 km/h (2 Bft)
17.04.2013 11:32 16,5 C 16,8 C 79 % 1021,1 hPa 0,0 l/m 0 min 0 min 0,0 UV-I 169 W/m 2,6 km/h (1 Bft)
17.04.2013 11:34 16,5 C 16,8 C 79 % 1021,2 hPa 0,0 l/m 0 min 0 min 0,0 UV-I 158 W/m 5,1 km/h (1 Bft)
17.04.2013 11:36 16,6 C 16,8 C 79 % 1021,1 hPa 0,0 l/m 0 min 0 min 0,0 UV-I 149 W/m 12,9 km/h (3 Bft)
17.04.2013 11:38 16,6 C 16,8 C 79 % 1021,1 hPa 0,0 l/m 0 min 0 min 0,0 UV-I 156 W/m 7,7 km/h (2 Bft)
17.04.2013 11:40 16,6 C 16,8 C 78 % 1021,1 hPa 0,0 l/m 0 min 0 min 0,0 UV-I 165 W/m 15,4 km/h (3 Bft)
17.04.2013 11:42 16,6 C 16,8 C 78 % 1021,1 hPa 0,0 l/m 0 min 0 min 0,0 UV-I 165 W/m 12,9 km/h (3 Bft)
17.04.2013 11:44 16,6 C 16,8 C 78 % 1021,0 hPa 0,0 l/m 0 min 0 min 0,0 UV-I 162 W/m 7,7 km/h (2 Bft)
17.04.2013 11:46 16,7 C 16,8 C 77 % 1021,0 hPa 0,0 l/m 0 min 0 min 0,0 UV-I 162 W/m 10,3 km/h (2 Bft)
17.04.2013 11:48 16,7 C 16,8 C 78 % 1021,0 hPa 0,0 l/m 0 min 0 min 0,0 UV-I 179 W/m 7,7 km/h (2 Bft)
17.04.2013 11:50 16,7 C 16,8 C 78 % 1021,1 hPa 0,0 l/m 0 min 0 min 0,6 UV-I 192 W/m 18,0 km/h (3 Bft)
17.04.2013 11:52 16,7 C 16,8 C 77 % 1020,9 hPa 0,0 l/m 0 min 0 min 0,7 UV-I 213 W/m 18,0 km/h (3 Bft)
17.04.2013 11:54 16,7 C 17,3 C 78 % 1021,0 hPa 0,0 l/m 0 min 0 min 0,9 UV-I 251 W/m 12,9 km/h (3 Bft)
17.04.2013 11:56 16,8 C 17,3 C 77 % 1020,9 hPa 0,0 l/m 0 min 0 min 1,1 UV-I 276 W/m 20,6 km/h (4 Bft)
17.04.2013 11:58 16,8 C 17,9 C 77 % 1021,0 hPa 0,0 l/m 0 min 0 min 1,2 UV-I 306 W/m 7,7 km/h (2 Bft)
17.04.2013 12:00 16,9 C 18,4 C 78 % 1021,0 hPa 0,0 l/m 0 min 0 min 1,2 UV-I 287 W/m 2,6 km/h (1 Bft)
17.04.2013 12:02 16,9 C 18,4 C 78 % 1020,9 hPa 0,0 l/m 0 min 0 min 1,1 UV-I 272 W/m 10,3 km/h (2 Bft)
17.04.2013 12:04 17,1 C 18,4 C 77 % 1020,8 hPa 0,0 l/m 0 min 0 min 1,1 UV-I 272 W/m 2,6 km/h (1 Bft)
17.04.2013 12:06 17,1 C 18,4 C 78 % 1020,8 hPa 0,0 l/m 0 min 0 min 1,3 UV-I 299 W/m 7,7 km/h (2 Bft)
17.04.2013 12:08 17,2 C 19,0 C 77 % 1020,7 hPa 0,0 l/m 0 min 0 min 1,3 UV-I 306 W/m 2,6 km/h (1 Bft)
17.04.2013 12:10 17,3 C 19,0 C 77 % 1020,7 hPa 0,0 l/m 0 min 0 min 1,4 UV-I 345 W/m 12,9 km/h (3 Bft)
17.04.2013 12:12 17,4 C 19,0 C 76 % 1020,8 hPa 0,0 l/m 0 min 0 min 1,5 UV-I 345 W/m 7,7 km/h (2 Bft)
17.04.2013 12:14 17,5 C 19,0 C 75 % 1020,8 hPa 0,0 l/m 0 min 0 min 1,7 UV-I 330 W/m 7,7 km/h (2 Bft)
17.04.2013 12:16 17,6 C 19,0 C 75 % 1020,7 hPa 0,0 l/m 0 min 0 min 1,5 UV-I 311 W/m 7,7 km/h (2 Bft)
17.04.2013 12:18 17,7 C 19,0 C 75 % 1020,7 hPa 0,0 l/m 0 min 0 min 1,3 UV-I 297 W/m 18,0 km/h (3 Bft)
17.04.2013 12:20 17,8 C 19,0 C 75 % 1020,7 hPa 0,0 l/m 0 min 0 min 1,3 UV-I 279 W/m 2,6 km/h (1 Bft)
17.04.2013 12:22 17,9 C 19,0 C 74 % 1020,7 hPa 0,0 l/m 0 min 0 min 1,3 UV-I 290 W/m 5,1 km/h (1 Bft)
17.04.2013 12:24 17,9 C 19,0 C 74 % 1020,7 hPa 0,0 l/m 0 min 0 min 1,3 UV-I 290 W/m 5,1 km/h (1 Bft)
17.04.2013 12:26 18,1 C 19,0 C 74 % 1020,6 hPa 0,0 l/m 0 min 0 min 1,5 UV-I 294 W/m 5,1 km/h (1 Bft)
17.04.2013 12:28 18,1 C 19,0 C 73 % 1020,7 hPa 0,0 l/m 0 min 0 min 1,6 UV-I 278 W/m 12,9 km/h (3 Bft)
17.04.2013 12:30 18,2 C 19,6 C 73 % 1020,7 hPa 0,0 l/m 2 min 0 min 1,9 UV-I 550 W/m 12,9 km/h (3 Bft)
17.04.2013 12:32 18,2 C 19,6 C 73 % 1020,5 hPa 0,0 l/m 0 min 0 min 1,7 UV-I 330 W/m 10,3 km/h (2 Bft)
17.04.2013 12:34 18,3 C 19,6 C 72 % 1020,5 hPa 0,0 l/m 0 min 0 min 1,3 UV-I 297 W/m 15,4 km/h (3 Bft)
17.04.2013 12:36 18,4 C 19,6 C 72 % 1020,6 hPa 0,0 l/m 0 min 0 min 1,2 UV-I 260 W/m 15,4 km/h (3 Bft)
17.04.2013 12:38 18,4 C 19,0 C 72 % 1020,6 hPa 0,0 l/m 0 min 0 min 1,6 UV-I 352 W/m 15,4 km/h (3 Bft)
17.04.2013 12:40 18,5 C 19,0 C 70 % 1020,5 hPa 0,0 l/m 0 min 0 min 1,3 UV-I 269 W/m 20,6 km/h (4 Bft)
17.04.2013 12:42 18,5 C 19,0 C 70 % 1020,5 hPa 0,0 l/m 0 min 0 min 1,0 UV-I 246 W/m 15,4 km/h (3 Bft)
17.04.2013 12:44 18,5 C 19,0 C 70 % 1020,5 hPa 0,0 l/m 0 min 0 min 1,0 UV-I 234 W/m 10,3 km/h (2 Bft)
17.04.2013 12:46 18,6 C 19,0 C 70 % 1020,5 hPa 0,0 l/m 0 min 0 min 1,2 UV-I 302 W/m 12,9 km/h (3 Bft)
17.04.2013 12:48 18,6 C 19,0 C 71 % 1020,4 hPa 0,0 l/m 0 min 0 min 1,1 UV-I 241 W/m 12,9 km/h (3 Bft)
17.04.2013 12:50 18,6 C 19,0 C 70 % 1020,4 hPa 0,0 l/m 0 min 0 min 0,8 UV-I 213 W/m 12,9 km/h (3 Bft)
17.04.2013 12:52 18,6 C 19,0 C 70 % 1020,4 hPa 0,0 l/m 0 min 0 min 0,8 UV-I 220 W/m 15,4 km/h (3 Bft)
17.04.2013 12:54 18,6 C 19,0 C 70 % 1020,4 hPa 0,0 l/m 0 min 0 min 1,1 UV-I 258 W/m 12,9 km/h (3 Bft)
17.04.2013 12:56 18,6 C 19,0 C 70 % 1020,3 hPa 0,0 l/m 0 min 0 min 1,5 UV-I 306 W/m 10,3 km/h (2 Bft)
17.04.2013 12:58 18,6 C 19,0 C 70 % 1020,3 hPa 0,0 l/m 0 min 0 min 1,7 UV-I 334 W/m 12,9 km/h (3 Bft)
17.04.2013 13:00 18,7 C 19,6 C 70 % 1020,2 hPa 0,0 l/m 0 min 0 min 1,9 UV-I 345 W/m 12,9 km/h (3 Bft)
17.04.2013 13:02 18,7 C 20,1 C 71 % 1020,3 hPa 0,0 l/m 0 min 0 min 2,2 UV-I 387 W/m 7,7 km/h (2 Bft)
17.04.2013 13:04 18,8 C 20,1 C 70 % 1020,3 hPa 0,0 l/m 0 min 0 min 2,0 UV-I 311 W/m 18,0 km/h (3 Bft)
17.04.2013 13:06 18,8 C 20,1 C 68 % 1020,1 hPa 0,0 l/m 0 min 0 min 2,5 UV-I 285 W/m 10,3 km/h (2 Bft)
17.04.2013 13:08 18,9 C 20,7 C 69 % 1020,1 hPa 0,0 l/m 0 min 0 min 2,6 UV-I 387 W/m 12,9 km/h (3 Bft)
17.04.2013 13:10 19,0 C 21,2 C 68 % 1020,1 hPa 0,0 l/m 0 min 0 min 3,1 UV-I 387 W/m 12,9 km/h (3 Bft)
17.04.2013 13:14 19,2 C 22,3 C 67 % 1020,1 hPa 0,0 l/m 2 min 0 min 3,4 UV-I 540 W/m 5,1 km/h (1 Bft)
17.04.2013 13:18 19,4 C 23,4 C 67 % 1020,0 hPa 0,0 l/m 2 min 0 min 3,3 UV-I 712 W/m 15,4 km/h (3 Bft)
17.04.2013 13:20 19,7 C 22,3 C 66 % 1020,0 hPa 0,0 l/m 2 min 0 min 2,5 UV-I 712 W/m 12,9 km/h (3 Bft)
17.04.2013 13:22 19,7 C 22,3 C 65 % 1020,0 hPa 0,0 l/m 2 min 0 min 3,1 UV-I 557 W/m 10,3 km/h (2 Bft)
17.04.2013 13:24 19,8 C 22,9 C 65 % 1019,9 hPa 0,0 l/m 2 min 0 min 3,7 UV-I 751 W/m 12,9 km/h (3 Bft)
17.04.2013 13:26 19,9 C 22,3 C 64 % 1019,9 hPa 0,0 l/m 2 min 0 min 3,7 UV-I 758 W/m 18,0 km/h (3 Bft)
17.04.2013 13:28 20,1 C 22,3 C 66 % 1019,9 hPa 0,0 l/m 2 min 0 min 2,7 UV-I 431 W/m 7,7 km/h (2 Bft)
17.04.2013 13:30 20,2 C 22,9 C 64 % 1019,8 hPa 0,0 l/m 2 min 0 min 3,5 UV-I 726 W/m 10,3 km/h (2 Bft)
17.04.2013 13:32 20,3 C 22,9 C 65 % 1019,8 hPa 0,0 l/m 2 min 0 min 3,3 UV-I 598 W/m 7,7 km/h (2 Bft)
17.04.2013 13:34 20,4 C 23,4 C 64 % 1019,7 hPa 0,0 l/m 2 min 0 min 3,4 UV-I 592 W/m 10,3 km/h (2 Bft)
17.04.2013 13:36 20,6 C 22,9 C 63 % 1019,7 hPa 0,0 l/m 2 min 0 min 2,6 UV-I 427 W/m 7,7 km/h (2 Bft)
17.04.2013 13:38 20,7 C 22,9 C 62 % 1019,7 hPa 0,0 l/m 2 min 0 min 2,4 UV-I 473 W/m 7,7 km/h (2 Bft)
17.04.2013 13:40 20,8 C 22,3 C 61 % 1019,7 hPa 0,0 l/m 0 min 0 min 2,2 UV-I 408 W/m 18,0 km/h (3 Bft)
17.04.2013 13:42 20,8 C 21,8 C 60 % 1019,6 hPa 0,0 l/m 0 min 0 min 2,0 UV-I 381 W/m 15,4 km/h (3 Bft)
17.04.2013 13:44 20,9 C 21,8 C 60 % 1019,5 hPa 0,0 l/m 0 min 0 min 1,9 UV-I 366 W/m 12,9 km/h (3 Bft)
17.04.2013 13:46 20,9 C 21,8 C 59 % 1019,5 hPa 0,0 l/m 0 min 0 min 1,7 UV-I 315 W/m 15,4 km/h (3 Bft)
17.04.2013 13:48 20,9 C 21,2 C 59 % 1019,5 hPa 0,0 l/m 0 min 0 min 2,0 UV-I 383 W/m 12,9 km/h (3 Bft)
17.04.2013 13:50 20,8 C 21,2 C 59 % 1019,4 hPa 0,0 l/m 2 min 0 min 2,2 UV-I 457 W/m 25,7 km/h (4 Bft)
17.04.2013 13:52 20,8 C 21,8 C 60 % 1019,5 hPa 0,0 l/m 2 min 0 min 2,1 UV-I 418 W/m 12,9 km/h (3 Bft)
17.04.2013 13:54 20,8 C 21,8 C 60 % 1019,5 hPa 0,0 l/m 0 min 0 min 1,9 UV-I 376 W/m 10,3 km/h (2 Bft)
17.04.2013 13:56 20,8 C 21,8 C 60 % 1019,5 hPa 0,0 l/m 0 min 0 min 1,7 UV-I 334 W/m 5,1 km/h (1 Bft)
17.04.2013 13:58 20,8 C 21,8 C 60 % 1019,5 hPa 0,0 l/m 0 min 0 min 1,6 UV-I 336 W/m 10,3 km/h (2 Bft)
17.04.2013 14:00 20,8 C 21,8 C 60 % 1019,5 hPa 0,0 l/m 0 min 0 min 1,8 UV-I 352 W/m 7,7 km/h (2 Bft)
17.04.2013 14:02 20,8 C 21,8 C 60 % 1019,3 hPa 0,0 l/m 2 min 0 min 2,3 UV-I 533 W/m 12,9 km/h (3 Bft)
17.04.2013 14:04 20,9 C 21,8 C 61 % 1019,3 hPa 0,0 l/m 2 min 0 min 2,5 UV-I 504 W/m 10,3 km/h (2 Bft)
17.04.2013 14:06 20,9 C 21,8 C 60 % 1019,3 hPa 0,0 l/m 2 min 0 min 2,6 UV-I 462 W/m 12,9 km/h (3 Bft)
17.04.2013 14:08 20,9 C 22,3 C 61 % 1019,3 hPa 0,0 l/m 2 min 0 min 3,2 UV-I 721 W/m 7,7 km/h (2 Bft)
17.04.2013 14:10 21,1 C 22,3 C 61 % 1019,2 hPa 0,0 l/m 2 min 0 min 2,6 UV-I 462 W/m 7,7 km/h (2 Bft)
17.04.2013 14:12 21,2 C 22,9 C 61 % 1019,2 hPa 0,0 l/m 2 min 0 min 2,8 UV-I 570 W/m 7,7 km/h (2 Bft)
17.04.2013 14:14 21,2 C 22,9 C 61 % 1019,2 hPa 0,0 l/m 2 min 0 min 3,8 UV-I 742 W/m 15,4 km/h (3 Bft)
17.04.2013 14:16 21,4 C 22,9 C 61 % 1019,2 hPa 0,0 l/m 2 min 0 min 2,7 UV-I 538 W/m 23,2 km/h (4 Bft)
17.04.2013 14:18 21,5 C 22,9 C 60 % 1019,2 hPa 0,0 l/m 2 min 0 min 2,9 UV-I 603 W/m 20,6 km/h (4 Bft)
17.04.2013 14:20 21,6 C 22,9 C 60 % 1019,2 hPa 0,0 l/m 2 min 0 min 2,9 UV-I 599 W/m 15,4 km/h (3 Bft)
17.04.2013 14:22 21,7 C 22,9 C 59 % 1019,2 hPa 0,0 l/m 2 min 0 min 2,5 UV-I 497 W/m 20,6 km/h (4 Bft)
17.04.2013 14:24 21,7 C 22,3 C 59 % 1019,2 hPa 0,0 l/m 2 min 0 min 3,5 UV-I 555 W/m 18,0 km/h (3 Bft)
17.04.2013 14:26 21,7 C 22,3 C 59 % 1019,1 hPa 0,0 l/m 2 min 0 min 3,1 UV-I 777 W/m 36,0 km/h (5 Bft)
17.04.2013 14:28 21,8 C 22,3 C 58 % 1019,2 hPa 0,0 l/m 2 min 0 min 2,7 UV-I 599 W/m 15,4 km/h (3 Bft)
17.04.2013 14:30 21,8 C 22,3 C 58 % 1019,1 hPa 0,0 l/m 2 min 0 min 3,4 UV-I 563 W/m 7,7 km/h (2 Bft)
17.04.2013 14:32 21,8 C 22,3 C 58 % 1019,1 hPa 0,0 l/m 2 min 0 min 3,0 UV-I 686 W/m 15,4 km/h (3 Bft)
17.04.2013 14:34 21,8 C 22,3 C 57 % 1019,0 hPa 0,0 l/m 2 min 0 min 2,7 UV-I 621 W/m 12,9 km/h (3 Bft)
17.04.2013 14:36 21,9 C 22,3 C 58 % 1019,0 hPa 0,0 l/m 2 min 0 min 3,0 UV-I 636 W/m 12,9 km/h (3 Bft)
17.04.2013 14:38 22,0 C 22,3 C 57 % 1018,9 hPa 0,0 l/m 2 min 0 min 2,8 UV-I 596 W/m 7,7 km/h (2 Bft)
17.04.2013 14:40 22,1 C 22,9 C 58 % 1018,9 hPa 0,0 l/m 2 min 0 min 3,2 UV-I 703 W/m 15,4 km/h (3 Bft)
17.04.2013 14:42 22,2 C 22,9 C 59 % 1018,8 hPa 0,0 l/m 2 min 0 min 3,0 UV-I 684 W/m 12,9 km/h (3 Bft)
17.04.2013 14:44 22,3 C 22,9 C 57 % 1018,9 hPa 0,0 l/m 2 min 0 min 2,9 UV-I 657 W/m 20,6 km/h (4 Bft)
17.04.2013 14:46 22,3 C 22,9 C 56 % 1018,9 hPa 0,0 l/m 2 min 0 min 2,7 UV-I 738 W/m 15,4 km/h (3 Bft)
17.04.2013 14:48 22,3 C 22,3 C 56 % 1018,8 hPa 0,0 l/m 0 min 0 min 2,2 UV-I 387 W/m 12,9 km/h (3 Bft)
17.04.2013 14:50 22,3 C 22,3 C 56 % 1018,7 hPa 0,0 l/m 2 min 0 min 2,9 UV-I 712 W/m 12,9 km/h (3 Bft)
17.04.2013 14:52 22,3 C 22,3 C 55 % 1018,7 hPa 0,0 l/m 2 min 0 min 2,5 UV-I 712 W/m 23,2 km/h (4 Bft)
17.04.2013 14:54 22,3 C 22,3 C 55 % 1018,7 hPa 0,0 l/m 2 min 0 min 3,1 UV-I 670 W/m 23,2 km/h (4 Bft)
17.04.2013 14:56 22,4 C 22,3 C 55 % 1018,7 hPa 0,0 l/m 2 min 0 min 3,0 UV-I 663 W/m 15,4 km/h (3 Bft)
17.04.2013 14:58 22,4 C 22,3 C 55 % 1018,7 hPa 0,0 l/m 2 min 0 min 2,9 UV-I 598 W/m 23,2 km/h (4 Bft)
17.04.2013 15:00 22,5 C 22,3 C 55 % 1018,7 hPa 0,0 l/m 2 min 0 min 2,7 UV-I 582 W/m 2,6 km/h (1 Bft)
17.04.2013 15:02 22,6 C 22,9 C 55 % 1018,6 hPa 0,0 l/m 2 min 0 min 2,7 UV-I 624 W/m 10,3 km/h (2 Bft)
17.04.2013 15:04 22,6 C 22,3 C 54 % 1018,7 hPa 0,0 l/m 2 min 0 min 2,6 UV-I 594 W/m 10,3 km/h (2 Bft)
17.04.2013 15:06 22,6 C 22,3 C 55 % 1018,7 hPa 0,0 l/m 2 min 0 min 2,5 UV-I 540 W/m 30,9 km/h (5 Bft)
17.04.2013 15:08 22,6 C 22,3 C 55 % 1018,6 hPa 0,0 l/m 2 min 0 min 2,6 UV-I 599 W/m 2,6 km/h (1 Bft)
17.04.2013 15:10 22,7 C 22,3 C 55 % 1018,6 hPa 0,0 l/m 2 min 0 min 2,6 UV-I 606 W/m 30,9 km/h (5 Bft)
17.04.2013 15:12 22,7 C 22,9 C 55 % 1018,6 hPa 0,0 l/m 2 min 0 min 2,2 UV-I 457 W/m 18,0 km/h (3 Bft)
17.04.2013 15:14 22,7 C 22,3 C 53 % 1018,5 hPa 0,0 l/m 0 min 0 min 1,8 UV-I 343 W/m 18,0 km/h (3 Bft)
17.04.2013 15:16 22,7 C 21,8 C 53 % 1018,5 hPa 0,0 l/m 0 min 0 min 2,2 UV-I 309 W/m 7,7 km/h (2 Bft)
17.04.2013 15:18 22,6 C 22,3 C 54 % 1018,4 hPa 0,0 l/m 2 min 0 min 2,2 UV-I 441 W/m 10,3 km/h (2 Bft)
17.04.2013 15:20 22,6 C 22,3 C 53 % 1018,3 hPa 0,0 l/m 0 min 0 min 1,5 UV-I 262 W/m 15,4 km/h (3 Bft)
17.04.2013 15:22 22,6 C 21,8 C 53 % 1018,3 hPa 0,0 l/m 2 min 0 min 1,8 UV-I 385 W/m 23,2 km/h (4 Bft)
17.04.2013 15:24 22,5 C 21,8 C 54 % 1018,2 hPa 0,0 l/m 0 min 0 min 1,6 UV-I 295 W/m 20,6 km/h (4 Bft)
17.04.2013 15:26 22,4 C 22,3 C 55 % 1018,2 hPa 0,0 l/m 2 min 0 min 1,8 UV-I 445 W/m 18,0 km/h (3 Bft)
17.04.2013 15:28 22,4 C 22,3 C 54 % 1018,2 hPa 0,0 l/m 2 min 0 min 1,7 UV-I 387 W/m 12,9 km/h (3 Bft)
17.04.2013 15:30 22,4 C 22,3 C 54 % 1018,2 hPa 0,0 l/m 0 min 0 min 1,4 UV-I 279 W/m 15,4 km/h (3 Bft)
17.04.2013 15:32 22,4 C 22,3 C 54 % 1018,1 hPa 0,0 l/m 0 min 0 min 1,4 UV-I 308 W/m 7,7 km/h (2 Bft)
17.04.2013 15:34 22,4 C 22,3 C 55 % 1018,2 hPa 0,0 l/m 0 min 0 min 1,3 UV-I 278 W/m 15,4 km/h (3 Bft)
17.04.2013 15:36 22,4 C 22,3 C 55 % 1018,1 hPa 0,0 l/m 0 min 0 min 1,4 UV-I 352 W/m 20,6 km/h (4 Bft)
17.04.2013 15:38 22,4 C 22,3 C 54 % 1018,1 hPa 0,0 l/m 2 min 0 min 1,5 UV-I 385 W/m 15,4 km/h (3 Bft)
17.04.2013 15:40 22,4 C 22,3 C 55 % 1018,0 hPa 0,0 l/m 2 min 0 min 1,5 UV-I 367 W/m 15,4 km/h (3 Bft)
17.04.2013 15:42 22,4 C 22,3 C 55 % 1017,9 hPa 0,0 l/m 0 min 0 min 1,5 UV-I 341 W/m 23,2 km/h (4 Bft)
17.04.2013 15:44 22,4 C 22,3 C 54 % 1018,0 hPa 0,0 l/m 0 min 0 min 1,4 UV-I 338 W/m 20,6 km/h (4 Bft)
17.04.2013 15:46 22,4 C 22,3 C 53 % 1017,9 hPa 0,0 l/m 0 min 0 min 1,3 UV-I 320 W/m 20,6 km/h (4 Bft)
17.04.2013 15:48 22,4 C 21,8 C 53 % 1017,9 hPa 0,0 l/m 0 min 0 min 1,2 UV-I 258 W/m 12,9 km/h (3 Bft)
17.04.2013 15:50 22,4 C 21,8 C 52 % 1017,9 hPa 0,0 l/m 0 min 0 min 1,2 UV-I 274 W/m 15,4 km/h (3 Bft)
17.04.2013 15:52 22,4 C 21,8 C 53 % 1017,8 hPa 0,0 l/m 0 min 0 min 1,2 UV-I 272 W/m 12,9 km/h (3 Bft)
17.04.2013 15:54 22,3 C 21,8 C 53 % 1017,8 hPa 0,0 l/m 0 min 0 min 1,2 UV-I 306 W/m 10,3 km/h (2 Bft)
17.04.2013 15:56 22,3 C 21,8 C 52 % 1017,8 hPa 0,0 l/m 0 min 0 min 1,3 UV-I 346 W/m 10,3 km/h (2 Bft)
17.04.2013 15:58 22,3 C 22,3 C 53 % 1017,7 hPa 0,0 l/m 2 min 0 min 1,4 UV-I 366 W/m 7,7 km/h (2 Bft)
17.04.2013 16:00 22,4 C 22,3 C 53 % 1017,7 hPa 0,0 l/m 0 min 0 min 1,3 UV-I 322 W/m 18,0 km/h (3 Bft)
17.04.2013 16:02 22,4 C 22,3 C 51 % 1017,6 hPa 0,0 l/m 0 min 0 min 1,3 UV-I 309 W/m 23,2 km/h (4 Bft)
17.04.2013 16:04 22,4 C 22,3 C 52 % 1017,7 hPa 0,0 l/m 2 min 0 min 1,3 UV-I 352 W/m 18,0 km/h (3 Bft)
17.04.2013 16:06 22,4 C 22,3 C 51 % 1017,7 hPa 0,0 l/m 2 min 0 min 1,6 UV-I 494 W/m 15,4 km/h (3 Bft)
17.04.2013 16:08 22,4 C 22,9 C 52 % 1017,6 hPa 0,0 l/m 2 min 0 min 1,8 UV-I 524 W/m 10,3 km/h (2 Bft)
17.04.2013 16:10 22,5 C 22,9 C 52 % 1017,6 hPa 0,0 l/m 2 min 0 min 1,8 UV-I 540 W/m 18,0 km/h (3 Bft)
17.04.2013 16:12 22,6 C 23,4 C 52 % 1017,7 hPa 0,0 l/m 2 min 0 min 1,9 UV-I 589 W/m 15,4 km/h (3 Bft)
17.04.2013 16:14 22,7 C 23,4 C 52 % 1017,7 hPa 0,0 l/m 2 min 0 min 1,8 UV-I 533 W/m 20,6 km/h (4 Bft)
17.04.2013 16:16 22,7 C 23,4 C 51 % 1017,6 hPa 0,0 l/m 2 min 0 min 1,9 UV-I 573 W/m 15,4 km/h (3 Bft)
17.04.2013 16:18 22,8 C 23,4 C 52 % 1017,5 hPa 0,0 l/m 2 min 0 min 1,8 UV-I 531 W/m 10,3 km/h (2 Bft)
17.04.2013 16:20 22,9 C 24,0 C 52 % 1017,5 hPa 0,0 l/m 2 min 0 min 1,8 UV-I 531 W/m 7,7 km/h (2 Bft)
17.04.2013 16:22 23,0 C 24,0 C 52 % 1017,5 hPa 0,0 l/m 2 min 0 min 1,7 UV-I 513 W/m 7,7 km/h (2 Bft)
17.04.2013 16:24 23,1 C 24,6 C 52 % 1017,3 hPa 0,0 l/m 2 min 0 min 1,7 UV-I 515 W/m 12,9 km/h (3 Bft)
17.04.2013 16:26 23,2 C 25,1 C 51 % 1017,4 hPa 0,0 l/m 2 min 0 min 1,8 UV-I 578 W/m 15,4 km/h (3 Bft)
17.04.2013 16:28 23,3 C 25,1 C 51 % 1017,4 hPa 0,0 l/m 2 min 0 min 1,9 UV-I 589 W/m 15,4 km/h (3 Bft)
17.04.2013 16:30 23,4 C 25,7 C 50 % 1017,3 hPa 0,0 l/m 2 min 0 min 1,7 UV-I 557 W/m 18,0 km/h (3 Bft)
17.04.2013 16:32 23,5 C 25,7 C 50 % 1017,3 hPa 0,0 l/m 2 min 0 min 1,7 UV-I 561 W/m 15,4 km/h (3 Bft)
17.04.2013 16:34 23,6 C 25,1 C 52 % 1017,3 hPa 0,0 l/m 2 min 0 min 1,7 UV-I 533 W/m 15,4 km/h (3 Bft)
17.04.2013 16:36 23,7 C 25,1 C 52 % 1017,3 hPa 0,0 l/m 2 min 0 min 1,5 UV-I 478 W/m 0,0 km/h (0 Bft)
17.04.2013 16:38 23,8 C 25,1 C 51 % 1017,2 hPa 0,0 l/m 2 min 0 min 1,5 UV-I 464 W/m 5,1 km/h (1 Bft)
17.04.2013 16:40 23,8 C 24,0 C 49 % 1017,2 hPa 0,0 l/m 2 min 0 min 1,4 UV-I 454 W/m 20,6 km/h (4 Bft)
17.04.2013 16:42 23,8 C 24,0 C 50 % 1017,1 hPa 0,0 l/m 2 min 0 min 1,4 UV-I 443 W/m 5,1 km/h (1 Bft)
17.04.2013 16:44 23,9 C 24,0 C 50 % 1017,0 hPa 0,0 l/m 2 min 0 min 1,4 UV-I 464 W/m 20,6 km/h (4 Bft)
17.04.2013 16:46 23,9 C 23,4 C 49 % 1017,1 hPa 0,0 l/m 2 min 0 min 1,4 UV-I 466 W/m 10,3 km/h (2 Bft)
17.04.2013 16:48 23,9 C 23,4 C 50 % 1017,2 hPa 0,0 l/m 2 min 0 min 1,4 UV-I 473 W/m 12,9 km/h (3 Bft)
17.04.2013 16:50 24,1 C 24,0 C 50 % 1017,0 hPa 0,0 l/m 2 min 0 min 1,4 UV-I 454 W/m 20,6 km/h (4 Bft)
17.04.2013 16:52 24,1 C 24,0 C 49 % 1017,1 hPa 0,0 l/m 2 min 0 min 1,3 UV-I 450 W/m 20,6 km/h (4 Bft)
17.04.2013 16:54 24,1 C 24,0 C 50 % 1017,1 hPa 0,0 l/m 2 min 0 min 1,3 UV-I 494 W/m 10,3 km/h (2 Bft)
17.04.2013 16:56 24,2 C 23,4 C 49 % 1017,1 hPa 0,0 l/m 2 min 0 min 1,3 UV-I 469 W/m 2,6 km/h (1 Bft)
17.04.2013 16:58 24,2 C 23,4 C 50 % 1017,1 hPa 0,0 l/m 2 min 0 min 1,2 UV-I 425 W/m 12,9 km/h (3 Bft)
17.04.2013 17:00 24,2 C 23,4 C 50 % 1017,0 hPa 0,0 l/m 2 min 0 min 1,2 UV-I 422 W/m 10,3 km/h (2 Bft)
17.04.2013 17:02 24,2 C 23,4 C 50 % 1017,0 hPa 0,0 l/m 2 min 0 min 1,2 UV-I 420 W/m 10,3 km/h (2 Bft)
17.04.2013 17:04 24,3 C 23,4 C 51 % 1016,9 hPa 0,0 l/m 2 min 0 min 1,2 UV-I 422 W/m 5,1 km/h (1 Bft)
17.04.2013 17:06 24,3 C 23,4 C 51 % 1016,8 hPa 0,0 l/m 2 min 0 min 1,1 UV-I 401 W/m 5,1 km/h (1 Bft)
17.04.2013 17:08 24,3 C 22,9 C 50 % 1016,8 hPa 0,0 l/m 2 min 0 min 1,1 UV-I 424 W/m 5,1 km/h (1 Bft)
17.04.2013 17:10 24,3 C 23,4 C 50 % 1016,8 hPa 0,0 l/m 2 min 0 min 1,1 UV-I 381 W/m 7,7 km/h (2 Bft)
17.04.2013 17:12 24,4 C 23,4 C 50 % 1016,7 hPa 0,0 l/m 2 min 0 min 1,0 UV-I 401 W/m 15,4 km/h (3 Bft)
17.04.2013 17:14 24,3 C 23,4 C 51 % 1016,8 hPa 0,0 l/m 2 min 0 min 1,1 UV-I 438 W/m 12,9 km/h (3 Bft)
17.04.2013 17:16 24,4 C 23,4 C 51 % 1016,7 hPa 0,0 l/m 2 min 0 min 1,0 UV-I 394 W/m 2,6 km/h (1 Bft)
17.04.2013 17:18 24,4 C 23,4 C 51 % 1016,7 hPa 0,0 l/m 2 min 0 min 0,9 UV-I 352 W/m 18,0 km/h (3 Bft)
17.04.2013 17:20 24,3 C 22,9 C 50 % 1016,7 hPa 0,0 l/m 2 min 0 min 0,9 UV-I 360 W/m 15,4 km/h (3 Bft)
17.04.2013 17:22 24,3 C 22,9 C 51 % 1016,7 hPa 0,0 l/m 2 min 0 min 0,8 UV-I 325 W/m 12,9 km/h (3 Bft)
17.04.2013 17:24 24,3 C 22,9 C 50 % 1016,5 hPa 0,0 l/m 2 min 0 min 0,7 UV-I 313 W/m 12,9 km/h (3 Bft)
17.04.2013 17:26 24,3 C 22,9 C 51 % 1016,6 hPa 0,0 l/m 2 min 0 min 0,7 UV-I 297 W/m 18,0 km/h (3 Bft)
17.04.2013 17:28 24,2 C 22,9 C 51 % 1016,5 hPa 0,0 l/m 2 min 0 min 0,7 UV-I 329 W/m 18,0 km/h (3 Bft)
17.04.2013 17:30 24,2 C 22,9 C 51 % 1016,6 hPa 0,0 l/m 2 min 0 min 0,7 UV-I 323 W/m 10,3 km/h (2 Bft)
17.04.2013 17:32 24,2 C 22,9 C 51 % 1016,7 hPa 0,0 l/m 2 min 0 min 0,6 UV-I 295 W/m 12,9 km/h (3 Bft)
17.04.2013 17:34 24,2 C 21,8 C 51 % 1016,6 hPa 0,0 l/m 2 min 0 min 0,6 UV-I 278 W/m 12,9 km/h (3 Bft)
17.04.2013 17:36 24,2 C 20,7 C 52 % 1016,5 hPa 0,0 l/m 2 min 0 min 0,6 UV-I 281 W/m 12,9 km/h (3 Bft)
17.04.2013 17:38 24,2 C 21,2 C 51 % 1016,4 hPa 0,0 l/m 2 min 0 min 0,6 UV-I 274 W/m 10,3 km/h (2 Bft)
17.04.2013 17:40 24,2 C 21,8 C 51 % 1016,3 hPa 0,0 l/m 2 min 0 min 0,5 UV-I 272 W/m 18,0 km/h (3 Bft)
17.04.2013 17:42 24,1 C 21,8 C 51 % 1016,3 hPa 0,0 l/m 2 min 0 min 0,5 UV-I 267 W/m 12,9 km/h (3 Bft)
17.04.2013 17:44 24,1 C 21,2 C 53 % 1016,3 hPa 0,0 l/m 2 min 0 min 0,5 UV-I 250 W/m 7,7 km/h (2 Bft)
17.04.2013 17:46 24,1 C 21,2 C 52 % 1016,3 hPa 0,0 l/m 2 min 0 min 0,0 UV-I 253 W/m 5,1 km/h (1 Bft)
17.04.2013 17:48 24,1 C 21,2 C 51 % 1016,3 hPa 0,0 l/m 2 min 0 min 0,0 UV-I 258 W/m 12,9 km/h (3 Bft)
17.04.2013 17:50 24,1 C 21,2 C 52 % 1016,3 hPa 0,0 l/m 2 min 0 min 0,0 UV-I 243 W/m 18,0 km/h (3 Bft)
17.04.2013 17:52 24,1 C 21,2 C 53 % 1016,3 hPa 0,0 l/m 2 min 0 min 0,0 UV-I 227 W/m 7,7 km/h (2 Bft)
17.04.2013 17:54 24,0 C 21,2 C 52 % 1016,3 hPa 0,0 l/m 0 min 0 min 0,0 UV-I 200 W/m 10,3 km/h (2 Bft)
17.04.2013 17:56 24,0 C 21,2 C 52 % 1016,3 hPa 0,0 l/m 0 min 0 min 0,0 UV-I 181 W/m 15,4 km/h (3 Bft)
17.04.2013 17:58 23,9 C 21,2 C 53 % 1016,3 hPa 0,0 l/m 0 min 0 min 0,0 UV-I 171 W/m 10,3 km/h (2 Bft)
17.04.2013 18:00 23,9 C 21,2 C 52 % 1016,3 hPa 0,0 l/m 0 min 0 min 0,0 UV-I 178 W/m 10,3 km/h (2 Bft)
17.04.2013 18:02 23,9 C 21,2 C 53 % 1016,3 hPa 0,0 l/m 0 min 0 min 0,0 UV-I 174 W/m 12,9 km/h (3 Bft)
17.04.2013 18:04 23,8 C 21,2 C 52 % 1016,3 hPa 0,0 l/m 0 min 0 min 0,0 UV-I 169 W/m 10,3 km/h (2 Bft)
17.04.2013 18:06 23,8 C 21,2 C 52 % 1016,3 hPa 0,0 l/m 0 min 0 min 0,0 UV-I 169 W/m 2,6 km/h (1 Bft)
17.04.2013 18:08 23,7 C 21,2 C 52 % 1016,2 hPa 0,0 l/m 0 min 0 min 0,0 UV-I 163 W/m 12,9 km/h (3 Bft)
17.04.2013 18:10 23,7 C 21,2 C 52 % 1016,2 hPa 0,0 l/m 0 min 0 min 0,0 UV-I 163 W/m 2,6 km/h (1 Bft)
17.04.2013 18:12 23,7 C 21,2 C 53 % 1016,1 hPa 0,0 l/m 0 min 0 min 0,0 UV-I 165 W/m 2,6 km/h (1 Bft)
17.04.2013 18:14 23,7 C 21,2 C 53 % 1016,1 hPa 0,0 l/m 0 min 0 min 0,0 UV-I 190 W/m 0,0 km/h (0 Bft)
17.04.2013 18:16 23,7 C 21,2 C 54 % 1016,1 hPa 0,0 l/m 0 min 0 min 0,0 UV-I 186 W/m 0,0 km/h (0 Bft)
17.04.2013 18:18 23,7 C 21,2 C 53 % 1016,1 hPa 0,0 l/m 0 min 0 min 0,0 UV-I 172 W/m 2,6 km/h (1 Bft)
17.04.2013 18:20 23,6 C 21,2 C 54 % 1016,0 hPa 0,0 l/m 0 min 0 min 0,0 UV-I 149 W/m 2,6 km/h (1 Bft)
17.04.2013 18:22 23,6 C 21,2 C 54 % 1016,0 hPa 0,0 l/m 0 min 0 min 0,0 UV-I 146 W/m 5,1 km/h (1 Bft)
17.04.2013 18:24 23,6 C 21,2 C 52 % 1016,1 hPa 0,0 l/m 0 min 0 min 0,0 UV-I 132 W/m 12,9 km/h (3 Bft)
17.04.2013 18:26 23,6 C 21,2 C 51 % 1016,1 hPa 0,0 l/m 0 min 0 min 0,0 UV-I 123 W/m 12,9 km/h (3 Bft)
17.04.2013 18:28 23,6 C 21,2 C 52 % 1016,1 hPa 0,0 l/m 0 min 0 min 0,0 UV-I 120 W/m 7,7 km/h (2 Bft)
17.04.2013 18:30 23,5 C 21,2 C 51 % 1016,1 hPa 0,0 l/m 0 min 0 min 0,0 UV-I 116 W/m 0,0 km/h (0 Bft)
17.04.2013 18:32 23,4 C 21,2 C 52 % 1016,0 hPa 0,0 l/m 0 min 0 min 0,0 UV-I 114 W/m 7,7 km/h (2 Bft)
17.04.2013 18:34 23,4 C 21,2 C 52 % 1015,9 hPa 0,0 l/m 0 min 0 min 0,0 UV-I 116 W/m 18,0 km/h (3 Bft)
17.04.2013 18:36 23,4 C 21,2 C 51 % 1015,9 hPa 0,0 l/m 0 min 0 min 0,0 UV-I 116 W/m 2,6 km/h (1 Bft)
17.04.2013 18:38 23,4 C 21,2 C 52 % 1015,9 hPa 0,0 l/m 0 min 0 min 0,0 UV-I 109 W/m 0,0 km/h (0 Bft)
17.04.2013 18:40 23,4 C 21,2 C 51 % 1015,9 hPa 0,0 l/m 0 min 0 min 0,0 UV-I 104 W/m 0,0 km/h (0 Bft)
17.04.2013 18:42 23,3 C 20,7 C 51 % 1015,8 hPa 0,0 l/m 0 min 0 min 0,0 UV-I 100 W/m 0,0 km/h (0 Bft)
17.04.2013 18:44 23,3 C 21,2 C 51 % 1015,8 hPa 0,0 l/m 0 min 0 min 0,0 UV-I 98 W/m 2,6 km/h (1 Bft)
17.04.2013 18:46 23,3 C 20,7 C 51 % 1015,8 hPa 0,0 l/m 0 min 0 min 0,0 UV-I 98 W/m 0,0 km/h (0 Bft)
17.04.2013 18:48 23,3 C 20,7 C 51 % 1015,8 hPa 0,0 l/m 0 min 0 min 0,0 UV-I 100 W/m 0,0 km/h (0 Bft)
17.04.2013 18:50 23,3 C 20,7 C 52 % 1015,8 hPa 0,0 l/m 0 min 0 min 0,0 UV-I 97 W/m 0,0 km/h (0 Bft)
17.04.2013 18:52 23,3 C 20,7 C 51 % 1015,7 hPa 0,0 l/m 0 min 0 min 0,0 UV-I 95 W/m 0,0 km/h (0 Bft)
17.04.2013 18:54 23,3 C 20,7 C 51 % 1015,8 hPa 0,0 l/m 0 min 0 min 0,0 UV-I 95 W/m 2,6 km/h (1 Bft)
17.04.2013 18:56 23,3 C 20,7 C 51 % 1015,8 hPa 0,0 l/m 0 min 0 min 0,0 UV-I 93 W/m 2,6 km/h (1 Bft)
17.04.2013 18:58 23,2 C 20,7 C 51 % 1015,7 hPa 0,0 l/m 0 min 0 min 0,0 UV-I 90 W/m 0,0 km/h (0 Bft)
17.04.2013 19:00 23,2 C 20,7 C 51 % 1015,7 hPa 0,0 l/m 0 min 0 min 0,0 UV-I 88 W/m 2,6 km/h (1 Bft)
17.04.2013 19:02 23,2 C 20,7 C 51 % 1015,7 hPa 0,0 l/m 0 min 0 min 0,0 UV-I 83 W/m 7,7 km/h (2 Bft)
17.04.2013 19:04 23,2 C 20,7 C 51 % 1015,8 hPa 0,0 l/m 0 min 0 min 0,0 UV-I 81 W/m 0,0 km/h (0 Bft)
17.04.2013 19:06 23,1 C 20,7 C 52 % 1015,7 hPa 0,0 l/m 0 min 0 min 0,0 UV-I 77 W/m 0,0 km/h (0 Bft)
17.04.2013 19:08 23,1 C 20,7 C 52 % 1015,7 hPa 0,0 l/m 0 min 0 min 0,0 UV-I 76 W/m 2,6 km/h (1 Bft)
17.04.2013 19:10 23,1 C 20,1 C 52 % 1015,7 hPa 0,0 l/m 0 min 0 min 0,0 UV-I 76 W/m 0,0 km/h (0 Bft)
17.04.2013 19:12 23,1 C 20,1 C 52 % 1015,6 hPa 0,0 l/m 0 min 0 min 0,0 UV-I 74 W/m 0,0 km/h (0 Bft)
17.04.2013 19:14 23,1 C 20,1 C 53 % 1015,6 hPa 0,0 l/m 0 min 0 min 0,0 UV-I 74 W/m 0,0 km/h (0 Bft)
17.04.2013 19:16 23,1 C 20,1 C 54 % 1015,6 hPa 0,0 l/m 0 min 0 min 0,0 UV-I 72 W/m 0,0 km/h (0 Bft)
17.04.2013 19:18 23,0 C 20,1 C 54 % 1015,6 hPa 0,0 l/m 0 min 0 min 0,0 UV-I 72 W/m 7,7 km/h (2 Bft)
17.04.2013 19:20 23,0 C 20,1 C 55 % 1015,5 hPa 0,0 l/m 0 min 0 min 0,0 UV-I 70 W/m 5,1 km/h (1 Bft)
17.04.2013 19:22 23,0 C 20,1 C 55 % 1015,5 hPa 0,0 l/m 0 min 0 min 0,0 UV-I 72 W/m 0,0 km/h (0 Bft)
17.04.2013 19:24 22,9 C 20,1 C 55 % 1015,5 hPa 0,0 l/m 0 min 0 min 0,0 UV-I 72 W/m 2,6 km/h (1 Bft)
17.04.2013 19:26 22,9 C 19,6 C 56 % 1015,5 hPa 0,0 l/m 0 min 0 min 0,0 UV-I 70 W/m 0,0 km/h (0 Bft)
17.04.2013 19:28 22,9 C 19,6 C 56 % 1015,4 hPa 0,0 l/m 0 min 0 min 0,0 UV-I 69 W/m 0,0 km/h (0 Bft)
17.04.2013 19:30 22,9 C 19,6 C 56 % 1015,4 hPa 0,0 l/m 0 min 0 min 0,0 UV-I 69 W/m 7,7 km/h (2 Bft)
17.04.2013 19:32 22,8 C 19,6 C 56 % 1015,4 hPa 0,0 l/m 0 min 0 min 0,0 UV-I 63 W/m 0,0 km/h (0 Bft)
17.04.2013 19:34 22,8 C 19,6 C 56 % 1015,3 hPa 0,0 l/m 0 min 0 min 0,0 UV-I 60 W/m 2,6 km/h (1 Bft)
17.04.2013 19:36 22,8 C 19,6 C 56 % 1015,4 hPa 0,0 l/m 0 min 0 min 0,0 UV-I 56 W/m 2,6 km/h (1 Bft)
17.04.2013 19:38 22,8 C 19,6 C 56 % 1015,3 hPa 0,0 l/m 0 min 0 min 0,0 UV-I 53 W/m 0,0 km/h (0 Bft)
17.04.2013 19:40 22,7 C 19,6 C 56 % 1015,3 hPa 0,0 l/m 0 min 0 min 0,0 UV-I 51 W/m 0,0 km/h (0 Bft)
17.04.2013 19:42 22,7 C 19,0 C 56 % 1015,3 hPa 0,0 l/m 0 min 0 min 0,0 UV-I 54 W/m 2,6 km/h (1 Bft)
17.04.2013 19:44 22,7 C 19,0 C 57 % 1015,3 hPa 0,0 l/m 0 min 0 min 0,0 UV-I 47 W/m 0,0 km/h (0 Bft)
17.04.2013 19:46 22,7 C 19,0 C 57 % 1015,2 hPa 0,0 l/m 0 min 0 min 0,0 UV-I 46 W/m 0,0 km/h (0 Bft)
17.04.2013 19:48 22,6 C 19,0 C 56 % 1015,2 hPa 0,0 l/m 0 min 0 min 0,0 UV-I 44 W/m 0,0 km/h (0 Bft)
17.04.2013 19:50 22,6 C 18,4 C 56 % 1015,2 hPa 0,0 l/m 0 min 0 min 0,0 UV-I 42 W/m 2,6 km/h (1 Bft)
17.04.2013 19:52 22,6 C 19,0 C 56 % 1015,2 hPa 0,0 l/m 0 min 0 min 0,0 UV-I 42 W/m 0,0 km/h (0 Bft)
17.04.2013 19:54 22,5 C 18,4 C 57 % 1015,3 hPa 0,0 l/m 0 min 0 min 0,0 UV-I 40 W/m 0,0 km/h (0 Bft)
17.04.2013 19:56 22,5 C 18,4 C 57 % 1015,3 hPa 0,0 l/m 0 min 0 min 0,0 UV-I 39 W/m 0,0 km/h (0 Bft)
17.04.2013 19:58 22,4 C 18,4 C 57 % 1015,2 hPa 0,0 l/m 0 min 0 min 0,0 UV-I 37 W/m 0,0 km/h (0 Bft)
17.04.2013 20:00 22,4 C 18,4 C 57 % 1015,2 hPa 0,0 l/m 0 min 0 min 0,0 UV-I 35 W/m 0,0 km/h (0 Bft)
17.04.2013 20:02 22,3 C 18,4 C 57 % 1015,2 hPa 0,0 l/m 0 min 0 min 0,0 UV-I 33 W/m 0,0 km/h (0 Bft)
17.04.2013 20:04 22,3 C 18,4 C 57 % 1015,1 hPa 0,0 l/m 0 min 0 min 0,0 UV-I 32 W/m 2,6 km/h (1 Bft)
17.04.2013 20:06 22,3 C 17,9 C 57 % 1015,1 hPa 0,0 l/m 0 min 0 min 0,0 UV-I 28 W/m 0,0 km/h (0 Bft)
17.04.2013 20:08 22,2 C 17,9 C 57 % 1015,1 hPa 0,0 l/m 0 min 0 min 0,0 UV-I 25 W/m 0,0 km/h (0 Bft)
17.04.2013 20:10 22,2 C 17,9 C 57 % 1015,1 hPa 0,0 l/m 0 min 0 min 0,0 UV-I 21 W/m 2,6 km/h (1 Bft)
17.04.2013 20:12 22,1 C 17,9 C 57 % 1015,0 hPa 0,0 l/m 0 min 0 min 0,0 UV-I 18 W/m 0,0 km/h (0 Bft)
17.04.2013 20:14 22,1 C 17,9 C 57 % 1015,0 hPa 0,0 l/m 0 min 0 min 0,0 UV-I 16 W/m 0,0 km/h (0 Bft)
17.04.2013 20:16 22,0 C 17,9 C 57 % 1015,0 hPa 0,0 l/m 0 min 0 min 0,0 UV-I 14 W/m 0,0 km/h (0 Bft)
17.04.2013 20:18 22,0 C 17,3 C 57 % 1014,9 hPa 0,0 l/m 0 min 0 min 0,0 UV-I 12 W/m 0,0 km/h (0 Bft)
17.04.2013 20:20 21,9 C 17,3 C 57 % 1014,9 hPa 0,0 l/m 0 min 0 min 0,0 UV-I 11 W/m 2,6 km/h (1 Bft)
17.04.2013 20:22 21,8 C 17,3 C 57 % 1014,8 hPa 0,0 l/m 0 min 0 min 0,0 UV-I 9 W/m 0,0 km/h (0 Bft)
17.04.2013 20:24 21,8 C 17,3 C 57 % 1014,8 hPa 0,0 l/m 0 min 0 min 0,0 UV-I 7 W/m 0,0 km/h (0 Bft)
17.04.2013 20:26 21,8 C 17,3 C 57 % 1014,8 hPa 0,0 l/m 0 min 0 min 0,0 UV-I 5 W/m 0,0 km/h (0 Bft)
17.04.2013 20:28 21,7 C 17,3 C 58 % 1014,8 hPa 0,0 l/m 0 min 0 min 0,0 UV-I 5 W/m 0,0 km/h (0 Bft)
17.04.2013 20:30 21,7 C 17,3 C 58 % 1014,8 hPa 0,0 l/m 0 min 0 min 0,0 UV-I 0 W/m 2,6 km/h (1 Bft)
17.04.2013 20:32 21,6 C 17,3 C 58 % 1014,7 hPa 0,0 l/m 0 min 0 min 0,0 UV-I 0 W/m 0,0 km/h (0 Bft)
17.04.2013 20:34 21,6 C 16,8 C 58 % 1014,7 hPa 0,0 l/m 0 min 0 min 0,0 UV-I 0 W/m 2,6 km/h (1 Bft)
17.04.2013 20:36 21,5 C 16,8 C 58 % 1014,8 hPa 0,0 l/m 0 min 0 min 0,0 UV-I 0 W/m 2,6 km/h (1 Bft)
17.04.2013 20:38 21,4 C 16,8 C 58 % 1014,7 hPa 0,0 l/m 0 min 0 min 0,0 UV-I 0 W/m 0,0 km/h (0 Bft)
17.04.2013 20:40 21,4 C 16,8 C 58 % 1014,7 hPa 0,0 l/m 0 min 0 min 0,0 UV-I 0 W/m 0,0 km/h (0 Bft)
17.04.2013 20:42 21,3 C 16,2 C 58 % 1014,7 hPa 0,0 l/m 0 min 0 min 0,0 UV-I 0 W/m 0,0 km/h (0 Bft)
17.04.2013 20:44 21,3 C 16,2 C 58 % 1014,7 hPa 0,0 l/m 0 min 0 min 0,0 UV-I 0 W/m 0,0 km/h (0 Bft)
17.04.2013 20:46 21,2 C 16,2 C 58 % 1014,7 hPa 0,0 l/m 0 min 0 min 0,0 UV-I 0 W/m 2,6 km/h (1 Bft)
17.04.2013 20:48 21,2 C 16,2 C 58 % 1014,7 hPa 0,0 l/m 0 min 0 min 0,0 UV-I 0 W/m 0,0 km/h (0 Bft)
17.04.2013 20:50 21,1 C 16,2 C 58 % 1014,7 hPa 0,0 l/m 0 min 0 min 0,0 UV-I 0 W/m 0,0 km/h (0 Bft)
17.04.2013 20:52 21,1 C 15,7 C 58 % 1014,7 hPa 0,0 l/m 0 min 0 min 0,0 UV-I 0 W/m 0,0 km/h (0 Bft)
17.04.2013 20:54 21,0 C 15,7 C 59 % 1014,7 hPa 0,0 l/m 0 min 0 min 0,0 UV-I 0 W/m 0,0 km/h (0 Bft)
17.04.2013 20:56 20,9 C 15,7 C 59 % 1014,7 hPa 0,0 l/m 0 min 0 min 0,0 UV-I 0 W/m 0,0 km/h (0 Bft)
17.04.2013 20:58 20,9 C 15,7 C 59 % 1014,7 hPa 0,0 l/m 0 min 0 min 0,0 UV-I 0 W/m 2,6 km/h (1 Bft)
17.04.2013 21:00 20,8 C 15,7 C 59 % 1014,7 hPa 0,0 l/m 0 min 0 min 0,0 UV-I 0 W/m 0,0 km/h (0 Bft)
17.04.2013 21:02 20,8 C 15,7 C 59 % 1014,6 hPa 0,0 l/m 0 min 0 min 0,0 UV-I 0 W/m 0,0 km/h (0 Bft)
17.04.2013 21:04 20,7 C 15,7 C 59 % 1014,6 hPa 0,0 l/m 0 min 0 min 0,0 UV-I 0 W/m 0,0 km/h (0 Bft)
17.04.2013 21:06 20,7 C 15,7 C 59 % 1014,6 hPa 0,0 l/m 0 min 0 min 0,0 UV-I 0 W/m 0,0 km/h (0 Bft)
17.04.2013 21:08 20,6 C 15,7 C 60 % 1014,7 hPa 0,0 l/m 0 min 0 min 0,0 UV-I 0 W/m 0,0 km/h (0 Bft)
17.04.2013 21:10 20,5 C 15,1 C 60 % 1014,7 hPa 0,0 l/m 0 min 0 min 0,0 UV-I 0 W/m 0,0 km/h (0 Bft)
17.04.2013 21:12 20,4 C 15,1 C 60 % 1014,7 hPa 0,0 l/m 0 min 0 min 0,0 UV-I 0 W/m 0,0 km/h (0 Bft)
17.04.2013 21:14 20,4 C 15,1 C 60 % 1014,7 hPa 0,0 l/m 0 min 0 min 0,0 UV-I 0 W/m 0,0 km/h (0 Bft)
17.04.2013 21:16 20,3 C 15,1 C 60 % 1014,6 hPa 0,0 l/m 0 min 0 min 0,0 UV-I 0 W/m 0,0 km/h (0 Bft)
17.04.2013 21:18 20,3 C 15,1 C 61 % 1014,7 hPa 0,0 l/m 0 min 0 min 0,0 UV-I 0 W/m 10,3 km/h (2 Bft)
17.04.2013 21:20 20,2 C 15,7 C 61 % 1014,6 hPa 0,0 l/m 0 min 0 min 0,0 UV-I 0 W/m 0,0 km/h (0 Bft)
17.04.2013 21:22 20,2 C 15,7 C 61 % 1014,6 hPa 0,0 l/m 0 min 0 min 0,0 UV-I 0 W/m 0,0 km/h (0 Bft)
17.04.2013 21:24 20,1 C 15,7 C 61 % 1014,6 hPa 0,0 l/m 0 min 0 min 0,0 UV-I 0 W/m 0,0 km/h (0 Bft)
17.04.2013 21:26 20,0 C 15,1 C 61 % 1014,6 hPa 0,0 l/m 0 min 0 min 0,0 UV-I 0 W/m 7,7 km/h (2 Bft)
17.04.2013 21:28 20,0 C 15,7 C 61 % 1014,6 hPa 0,0 l/m 0 min 0 min 0,0 UV-I 0 W/m 2,6 km/h (1 Bft)
17.04.2013 21:30 19,9 C 15,7 C 62 % 1014,6 hPa 0,0 l/m 0 min 0 min 0,0 UV-I 0 W/m 10,3 km/h (2 Bft)
17.04.2013 21:32 19,8 C 15,7 C 62 % 1014,6 hPa 0,0 l/m 0 min 0 min 0,0 UV-I 0 W/m 10,3 km/h (2 Bft)
17.04.2013 21:34 19,8 C 16,2 C 62 % 1014,5 hPa 0,0 l/m 0 min 0 min 0,0 UV-I 0 W/m 2,6 km/h (1 Bft)
17.04.2013 21:36 19,8 C 16,2 C 62 % 1014,5 hPa 0,0 l/m 0 min 0 min 0,0 UV-I 0 W/m 10,3 km/h (2 Bft)
17.04.2013 21:38 19,7 C 16,2 C 62 % 1014,5 hPa 0,0 l/m 0 min 0 min 0,0 UV-I 0 W/m 10,3 km/h (2 Bft)
17.04.2013 21:40 19,7 C 16,2 C 63 % 1014,5 hPa 0,0 l/m 0 min 0 min 0,0 UV-I 0 W/m 12,9 km/h (3 Bft)
17.04.2013 21:42 19,7 C 16,2 C 63 % 1014,5 hPa 0,0 l/m 0 min 0 min 0,0 UV-I 0 W/m 10,3 km/h (2 Bft)
17.04.2013 21:44 19,6 C 16,2 C 63 % 1014,5 hPa 0,0 l/m 0 min 0 min 0,0 UV-I 0 W/m 7,7 km/h (2 Bft)
17.04.2013 21:46 19,6 C 16,2 C 63 % 1014,4 hPa 0,0 l/m 0 min 0 min 0,0 UV-I 0 W/m 7,7 km/h (2 Bft)
17.04.2013 21:48 19,6 C 16,2 C 63 % 1014,4 hPa 0,0 l/m 0 min 0 min 0,0 UV-I 0 W/m 2,6 km/h (1 Bft)
17.04.2013 21:50 19,6 C 16,2 C 63 % 1014,4 hPa 0,0 l/m 0 min 0 min 0,0 UV-I 0 W/m 0,0 km/h (0 Bft)
17.04.2013 21:52 19,5 C 16,2 C 63 % 1014,3 hPa 0,0 l/m 0 min 0 min 0,0 UV-I 0 W/m 7,7 km/h (2 Bft)
17.04.2013 21:54 19,5 C 16,2 C 63 % 1014,3 hPa 0,0 l/m 0 min 0 min 0,0 UV-I 0 W/m 7,7 km/h (2 Bft)
17.04.2013 21:56 19,5 C 16,2 C 63 % 1014,3 hPa 0,0 l/m 0 min 0 min 0,0 UV-I 0 W/m 2,6 km/h (1 Bft)
17.04.2013 21:58 19,4 C 16,2 C 63 % 1014,2 hPa 0,0 l/m 0 min 0 min 0,0 UV-I 0 W/m 7,7 km/h (2 Bft)
17.04.2013 22:00 19,4 C 16,2 C 64 % 1014,2 hPa 0,0 l/m 0 min 0 min 0,0 UV-I 0 W/m 10,3 km/h (2 Bft)
17.04.2013 22:02 19,4 C 16,2 C 64 % 1014,2 hPa 0,0 l/m 0 min 0 min 0,0 UV-I 0 W/m 12,9 km/h (3 Bft)
17.04.2013 22:04 19,3 C 16,2 C 64 % 1014,2 hPa 0,0 l/m 0 min 0 min 0,0 UV-I 0 W/m 10,3 km/h (2 Bft)
17.04.2013 22:06 19,3 C 16,2 C 64 % 1014,1 hPa 0,0 l/m 0 min 0 min 0,0 UV-I 0 W/m 10,3 km/h (2 Bft)
17.04.2013 22:08 19,3 C 16,2 C 64 % 1014,1 hPa 0,0 l/m 0 min 0 min 0,0 UV-I 0 W/m 12,9 km/h (3 Bft)
17.04.2013 22:10 19,3 C 16,2 C 64 % 1014,1 hPa 0,0 l/m 0 min 0 min 0,0 UV-I 0 W/m 12,9 km/h (3 Bft)
17.04.2013 22:12 19,2 C 16,2 C 65 % 1014,1 hPa 0,0 l/m 0 min 0 min 0,0 UV-I 0 W/m 10,3 km/h (2 Bft)
17.04.2013 22:14 19,2 C 16,2 C 64 % 1014,1 hPa 0,0 l/m 0 min 0 min 0,0 UV-I 0 W/m 5,1 km/h (1 Bft)
17.04.2013 22:16 19,2 C 16,2 C 64 % 1014,1 hPa 0,0 l/m 0 min 0 min 0,0 UV-I 0 W/m 10,3 km/h (2 Bft)
17.04.2013 22:18 19,2 C 15,7 C 64 % 1014,1 hPa 0,0 l/m 0 min 0 min 0,0 UV-I 0 W/m 2,6 km/h (1 Bft)
17.04.2013 22:20 19,1 C 15,7 C 64 % 1014,0 hPa 0,0 l/m 0 min 0 min 0,0 UV-I 0 W/m 10,3 km/h (2 Bft)
17.04.2013 22:22 19,1 C 15,7 C 64 % 1014,1 hPa 0,0 l/m 0 min 0 min 0,0 UV-I 0 W/m 10,3 km/h (2 Bft)
17.04.2013 22:24 19,0 C 15,7 C 64 % 1014,0 hPa 0,0 l/m 0 min 0 min 0,0 UV-I 0 W/m 7,7 km/h (2 Bft)
17.04.2013 22:26 19,0 C 15,7 C 64 % 1014,0 hPa 0,0 l/m 0 min 0 min 0,0 UV-I 0 W/m 12,9 km/h (3 Bft)
17.04.2013 22:28 18,9 C 15,7 C 64 % 1013,9 hPa 0,0 l/m 0 min 0 min 0,0 UV-I 0 W/m 15,4 km/h (3 Bft)
17.04.2013 22:30 18,9 C 15,7 C 64 % 1013,9 hPa 0,0 l/m 0 min 0 min 0,0 UV-I 0 W/m 7,7 km/h (2 Bft)
17.04.2013 22:32 18,9 C 15,7 C 65 % 1013,9 hPa 0,0 l/m 0 min 0 min 0,0 UV-I 0 W/m 10,3 km/h (2 Bft)
17.04.2013 22:34 18,9 C 15,7 C 65 % 1013,8 hPa 0,0 l/m 0 min 0 min 0,0 UV-I 0 W/m 10,3 km/h (2 Bft)
17.04.2013 22:36 18,9 C 16,2 C 65 % 1013,7 hPa 0,0 l/m 0 min 0 min 0,0 UV-I 0 W/m 15,4 km/h (3 Bft)
17.04.2013 22:38 18,9 C 15,7 C 65 % 1013,6 hPa 0,0 l/m 0 min 0 min 0,0 UV-I 0 W/m 12,9 km/h (3 Bft)
17.04.2013 22:40 18,8 C 15,7 C 65 % 1013,6 hPa 0,0 l/m 0 min 0 min 0,0 UV-I 0 W/m 7,7 km/h (2 Bft)
17.04.2013 22:42 18,8 C 16,2 C 65 % 1013,6 hPa 0,0 l/m 0 min 0 min 0,0 UV-I 0 W/m 12,9 km/h (3 Bft)
17.04.2013 22:44 18,8 C 16,2 C 65 % 1013,6 hPa 0,0 l/m 0 min 0 min 0,0 UV-I 0 W/m 5,1 km/h (1 Bft)
17.04.2013 22:46 18,8 C 16,2 C 65 % 1013,5 hPa 0,0 l/m 0 min 0 min 0,0 UV-I 0 W/m 7,7 km/h (2 Bft)
17.04.2013 22:48 18,8 C 16,2 C 65 % 1013,5 hPa 0,0 l/m 0 min 0 min 0,0 UV-I 0 W/m 12,9 km/h (3 Bft)
17.04.2013 22:50 18,8 C 16,2 C 65 % 1013,5 hPa 0,0 l/m 0 min 0 min 0,0 UV-I 0 W/m 10,3 km/h (2 Bft)
17.04.2013 22:52 18,8 C 16,2 C 65 % 1013,5 hPa 0,0 l/m 0 min 0 min 0,0 UV-I 0 W/m 10,3 km/h (2 Bft)
17.04.2013 22:54 18,8 C 16,2 C 65 % 1013,5 hPa 0,0 l/m 0 min 0 min 0,0 UV-I 0 W/m 7,7 km/h (2 Bft)
17.04.2013 22:56 18,8 C 16,2 C 65 % 1013,5 hPa 0,0 l/m 0 min 0 min 0,0 UV-I 0 W/m 12,9 km/h (3 Bft)
17.04.2013 22:58 18,8 C 16,2 C 65 % 1013,4 hPa 0,0 l/m 0 min 0 min 0,0 UV-I 0 W/m 7,7 km/h (2 Bft)
17.04.2013 23:00 18,8 C 16,2 C 65 % 1013,4 hPa 0,0 l/m 0 min 0 min 0,0 UV-I 0 W/m 7,7 km/h (2 Bft)
17.04.2013 23:02 18,7 C 16,2 C 65 % 1013,3 hPa 0,0 l/m 0 min 0 min 0,0 UV-I 0 W/m 7,7 km/h (2 Bft)
17.04.2013 23:04 18,7 C 16,2 C 65 % 1013,3 hPa 0,0 l/m 0 min 0 min 0,0 UV-I 0 W/m 12,9 km/h (3 Bft)
17.04.2013 23:06 18,7 C 16,2 C 65 % 1013,3 hPa 0,0 l/m 0 min 0 min 0,0 UV-I 0 W/m 7,7 km/h (2 Bft)
17.04.2013 23:08 18,7 C 16,2 C 65 % 1013,2 hPa 0,0 l/m 0 min 0 min 0,0 UV-I 0 W/m 10,3 km/h (2 Bft)
17.04.2013 23:10 18,7 C 16,2 C 65 % 1013,2 hPa 0,0 l/m 0 min 0 min 0,0 UV-I 0 W/m 10,3 km/h (2 Bft)
17.04.2013 23:12 18,7 C 16,2 C 65 % 1013,1 hPa 0,0 l/m 0 min 0 min 0,0 UV-I 0 W/m 12,9 km/h (3 Bft)
17.04.2013 23:14 18,7 C 16,2 C 65 % 1013,1 hPa 0,0 l/m 0 min 0 min 0,0 UV-I 0 W/m 12,9 km/h (3 Bft)
17.04.2013 23:16 18,7 C 16,2 C 65 % 1013,1 hPa 0,0 l/m 0 min 0 min 0,0 UV-I 0 W/m 18,0 km/h (3 Bft)
17.04.2013 23:18 18,7 C 16,2 C 65 % 1013,1 hPa 0,0 l/m 0 min 0 min 0,0 UV-I 0 W/m 12,9 km/h (3 Bft)
17.04.2013 23:20 18,8 C 16,2 C 65 % 1013,0 hPa 0,0 l/m 0 min 0 min 0,0 UV-I 0 W/m 15,4 km/h (3 Bft)
17.04.2013 23:22 18,8 C 16,8 C 65 % 1013,0 hPa 0,0 l/m 0 min 0 min 0,0 UV-I 0 W/m 15,4 km/h (3 Bft)
17.04.2013 23:24 18,8 C 16,2 C 65 % 1013,0 hPa 0,0 l/m 0 min 0 min 0,0 UV-I 0 W/m 5,1 km/h (1 Bft)
17.04.2013 23:26 18,8 C 16,2 C 65 % 1012,9 hPa 0,0 l/m 0 min 0 min 0,0 UV-I 0 W/m 12,9 km/h (3 Bft)
17.04.2013 23:28 18,8 C 16,2 C 65 % 1012,8 hPa 0,0 l/m 0 min 0 min 0,0 UV-I 0 W/m 12,9 km/h (3 Bft)
17.04.2013 23:30 18,7 C 16,2 C 65 % 1012,8 hPa 0,0 l/m 0 min 0 min 0,0 UV-I 0 W/m 12,9 km/h (3 Bft)
17.04.2013 23:32 18,7 C 16,2 C 65 % 1012,8 hPa 0,0 l/m 0 min 0 min 0,0 UV-I 0 W/m 15,4 km/h (3 Bft)
17.04.2013 23:34 18,7 C 16,2 C 65 % 1012,8 hPa 0,0 l/m 0 min 0 min 0,0 UV-I 0 W/m 12,9 km/h (3 Bft)
17.04.2013 23:36 18,7 C 16,2 C 65 % 1012,8 hPa 0,0 l/m 0 min 0 min 0,0 UV-I 0 W/m 15,4 km/h (3 Bft)
17.04.2013 23:38 18,7 C 16,2 C 65 % 1012,7 hPa 0,0 l/m 0 min 0 min 0,0 UV-I 0 W/m 12,9 km/h (3 Bft)
17.04.2013 23:40 18,7 C 16,2 C 65 % 1012,7 hPa 0,0 l/m 0 min 0 min 0,0 UV-I 0 W/m 10,3 km/h (2 Bft)
17.04.2013 23:42 18,7 C 16,2 C 65 % 1012,7 hPa 0,0 l/m 0 min 0 min 0,0 UV-I 0 W/m 15,4 km/h (3 Bft)
17.04.2013 23:44 18,7 C 16,2 C 65 % 1012,7 hPa 0,0 l/m 0 min 0 min 0,0 UV-I 0 W/m 5,1 km/h (1 Bft)
17.04.2013 23:46 18,7 C 16,2 C 65 % 1012,7 hPa 0,0 l/m 0 min 0 min 0,0 UV-I 0 W/m 12,9 km/h (3 Bft)
17.04.2013 23:48 18,7 C 16,2 C 65 % 1012,6 hPa 0,0 l/m 0 min 0 min 0,0 UV-I 0 W/m 15,4 km/h (3 Bft)
17.04.2013 23:50 18,7 C 16,2 C 65 % 1012,6 hPa 0,0 l/m 0 min 0 min 0,0 UV-I 0 W/m 12,9 km/h (3 Bft)
17.04.2013 23:52 18,7 C 16,2 C 65 % 1012,6 hPa 0,0 l/m 0 min 0 min 0,0 UV-I 0 W/m 12,9 km/h (3 Bft)
17.04.2013 23:54 18,7 C 16,2 C 65 % 1012,5 hPa 0,0 l/m 0 min 0 min 0,0 UV-I 0 W/m 15,4 km/h (3 Bft)
17.04.2013 23:56 18,7 C 16,2 C 65 % 1012,5 hPa 0,0 l/m 0 min 0 min 0,0 UV-I 0 W/m 15,4 km/h (3 Bft)
17.04.2013 23:58 18,7 C 16,2 C 65 % 1012,5 hPa 0,0 l/m 0 min 0 min 0,0 UV-I 0 W/m 12,9 km/h (3 Bft)
_ Min-Zeit 06:18 05:36 16:40 23:54 - - - - - 00:00
Minimum _ 12,1 C 10,7 C 49 % 1012,5 hPa - - - - - 0,0 km/h (0 Bft)
_ Max-Zeit 17:12 16:30 07:18 09:36 00:00 12:30 00:00 14:14 14:26 14:26
Maximum _ 24,4 C 25,7 C 97 % 1021,9 hPa 0,0 l/m 2 min 0 min 3,8 UV-I 777 W/m 36,0 km/h
S-SO (5 Bft)
Durchschnitt _ 17,5 C 16,4 C 74 % 1018,9 hPa #0,0 l/m #3:44 h #0 min. 1,8 UV-I 243 W/m 5,9 km/h (2 Bft)
© 2013 W. Hausmann